<?xml version='1.0' encoding='UTF-8'?><gpx version="1.1" creator="JPX - https://github.com/jenetics/jpx" xmlns="http://www.topografix.com/GPX/1/1"><trk><trkseg><trkpt lat="43.78214135320357" lon="10.919813046468269"><ele>51.0</ele><time>2026-05-01T16:25:53.633Z</time></trkpt><trkpt lat="43.782108723791744" lon="10.919734779947959"><ele>51.0</ele><time>2026-05-01T16:25:56.482Z</time></trkpt><trkpt lat="43.78205966018531" lon="10.919653083109099"><ele>51.0</ele><time>2026-05-01T16:26:00.281Z</time></trkpt><trkpt lat="43.78202241149994" lon="10.919581769520526"><ele>51.0</ele><time>2026-05-01T16:26:03.13Z</time></trkpt><trkpt lat="43.78198071383586" lon="10.919499199045395"><ele>51.0</ele><time>2026-05-01T16:26:07.003Z</time></trkpt><trkpt lat="43.78195033301043" lon="10.91940093302687"><ele>51.0</ele><time>2026-05-01T16:26:10.002Z</time></trkpt><trkpt lat="43.78191470700959" lon="10.91929832872825"><ele>51.0</ele><time>2026-05-01T16:26:14.002Z</time></trkpt><trkpt lat="43.781883142804354" lon="10.919218235420361"><ele>50.5</ele><time>2026-05-01T16:26:17.001Z</time></trkpt><trkpt lat="43.78183600869002" lon="10.91914128789171"><ele>50.0</ele><time>2026-05-01T16:26:20.001Z</time></trkpt><trkpt lat="43.781801962744225" lon="10.919054615613234"><ele>49.5</ele><time>2026-05-01T16:26:23.001Z</time></trkpt><trkpt lat="43.781762855507864" lon="10.918962445306995"><ele>49.0</ele><time>2026-05-01T16:26:26Z</time></trkpt><trkpt lat="43.781716200648205" lon="10.9188743314174"><ele>48.5</ele><time>2026-05-01T16:26:30Z</time></trkpt><trkpt lat="43.7816763659118" lon="10.918794266563927"><ele>48.0</ele><time>2026-05-01T16:26:33Z</time></trkpt><trkpt lat="43.7816232913641" lon="10.918701681689763"><ele>47.99999999999999</ele><time>2026-05-01T16:26:37Z</time></trkpt><trkpt lat="43.78158985564726" lon="10.918625306310927"><ele>48.0</ele><time>2026-05-01T16:26:40Z</time></trkpt><trkpt lat="43.78154701723901" lon="10.918554928122962"><ele>48.0</ele><time>2026-05-01T16:26:43Z</time></trkpt><trkpt lat="43.78151262038478" lon="10.918470987165712"><ele>48.0</ele><time>2026-05-01T16:26:46Z</time></trkpt><trkpt lat="43.78147521239093" lon="10.918399607459138"><ele>48.0</ele><time>2026-05-01T16:26:49Z</time></trkpt><trkpt lat="43.781410523719885" lon="10.918412593844348"><ele>47.99999999999999</ele><time>2026-05-01T16:26:52Z</time></trkpt><trkpt lat="43.781355029875705" lon="10.918462784856356"><ele>48.0</ele><time>2026-05-01T16:26:56.999Z</time></trkpt><trkpt lat="43.78143363618761" lon="10.918431694963948"><ele>47.42857142857142</ele><time>2026-05-01T16:27:35.999Z</time></trkpt><trkpt lat="43.78148664924717" lon="10.91837728969199"><ele>46.857142857142854</ele><time>2026-05-01T16:27:41.999Z</time></trkpt><trkpt lat="43.781447344386045" lon="10.918280925350299"><ele>46.285714285714285</ele><time>2026-05-01T16:27:45.999Z</time></trkpt><trkpt lat="43.78141189112334" lon="10.918194645559904"><ele>45.71428571428571</ele><time>2026-05-01T16:27:48.999Z</time></trkpt><trkpt lat="43.78137632470306" lon="10.91810147077335"><ele>45.14285714285714</ele><time>2026-05-01T16:27:52.999Z</time></trkpt><trkpt lat="43.781336983188545" lon="10.918028133468493"><ele>44.57142857142857</ele><time>2026-05-01T16:27:55.999Z</time></trkpt><trkpt lat="43.781282402137194" lon="10.917959871059617"><ele>44.0</ele><time>2026-05-01T16:27:58.999Z</time></trkpt><trkpt lat="43.781236028347074" lon="10.917891259730737"><ele>44.0</ele><time>2026-05-01T16:28:01.999Z</time></trkpt><trkpt lat="43.781178872209324" lon="10.917827806391578"><ele>44.0</ele><time>2026-05-01T16:28:04.999Z</time></trkpt><trkpt lat="43.78112448653396" lon="10.917762618585755"><ele>44.0</ele><time>2026-05-01T16:28:07.999Z</time></trkpt><trkpt lat="43.78106771952358" lon="10.917694524877234"><ele>44.0</ele><time>2026-05-01T16:28:10.999Z</time></trkpt><trkpt lat="43.78101957648853" lon="10.917635704579311"><ele>44.0</ele><time>2026-05-01T16:28:13.999Z</time></trkpt><trkpt lat="43.780959293918386" lon="10.917581414089504"><ele>44.0</ele><time>2026-05-01T16:28:16.999Z</time></trkpt><trkpt lat="43.780902975279695" lon="10.917534626890596"><ele>44.0</ele><time>2026-05-01T16:28:19.999Z</time></trkpt><trkpt lat="43.780842184300994" lon="10.917472460533444"><ele>43.83333333333333</ele><time>2026-05-01T16:28:22.998Z</time></trkpt><trkpt lat="43.78078379347008" lon="10.91741373577243"><ele>43.666666666666664</ele><time>2026-05-01T16:28:25.998Z</time></trkpt><trkpt lat="43.780722942109236" lon="10.917361817580758"><ele>43.5</ele><time>2026-05-01T16:28:28.998Z</time></trkpt><trkpt lat="43.780660725876096" lon="10.917315364337918"><ele>43.333333333333336</ele><time>2026-05-01T16:28:31.998Z</time></trkpt><trkpt lat="43.78059183736533" lon="10.917265218640193"><ele>43.16666666666667</ele><time>2026-05-01T16:28:34.998Z</time></trkpt><trkpt lat="43.78051357740571" lon="10.917226725370032"><ele>43.0</ele><time>2026-05-01T16:28:37.998Z</time></trkpt><trkpt lat="43.780433223105895" lon="10.917215287186362"><ele>43.0</ele><time>2026-05-01T16:28:40.998Z</time></trkpt><trkpt lat="43.7803546984985" lon="10.917207176839497"><ele>43.0</ele><time>2026-05-01T16:28:43.998Z</time></trkpt><trkpt lat="43.78028445609371" lon="10.917185753450298"><ele>43.0</ele><time>2026-05-01T16:28:46.998Z</time></trkpt><trkpt lat="43.78020713153907" lon="10.917178107295642"><ele>43.0</ele><time>2026-05-01T16:28:49.998Z</time></trkpt><trkpt lat="43.780127409614195" lon="10.91717392492976"><ele>43.0</ele><time>2026-05-01T16:28:52.998Z</time></trkpt><trkpt lat="43.78005038930442" lon="10.917163907261886"><ele>43.0</ele><time>2026-05-01T16:28:55.998Z</time></trkpt><trkpt lat="43.7799793350572" lon="10.917141552325264"><ele>42.5</ele><time>2026-05-01T16:28:58.998Z</time></trkpt><trkpt lat="43.77989830392434" lon="10.917141764849852"><ele>42.0</ele><time>2026-05-01T16:29:01.998Z</time></trkpt><trkpt lat="43.77981778702922" lon="10.917127264635983"><ele>41.5</ele><time>2026-05-01T16:29:04.998Z</time></trkpt><trkpt lat="43.77973203414014" lon="10.917129467693597"><ele>41.0</ele><time>2026-05-01T16:29:07.998Z</time></trkpt><trkpt lat="43.77966102241028" lon="10.917122384954341"><ele>40.5</ele><time>2026-05-01T16:29:10.998Z</time></trkpt><trkpt lat="43.77957681151341" lon="10.917146219150304"><ele>40.0</ele><time>2026-05-01T16:29:13.998Z</time></trkpt><trkpt lat="43.77949721789691" lon="10.917166113105099"><ele>40.0</ele><time>2026-05-01T16:29:16.998Z</time></trkpt><trkpt lat="43.779431798917635" lon="10.917186322225556"><ele>40.0</ele><time>2026-05-01T16:29:19.998Z</time></trkpt><trkpt lat="43.779364246228276" lon="10.917216111633877"><ele>40.0</ele><time>2026-05-01T16:29:22.998Z</time></trkpt><trkpt lat="43.77929971019717" lon="10.917231549834419"><ele>40.0</ele><time>2026-05-01T16:29:25.998Z</time></trkpt><trkpt lat="43.77923300977851" lon="10.917254343133447"><ele>40.0</ele><time>2026-05-01T16:29:28.998Z</time></trkpt><trkpt lat="43.77916771789022" lon="10.917276561027753"><ele>40.0</ele><time>2026-05-01T16:29:31.998Z</time></trkpt><trkpt lat="43.779103727646294" lon="10.917288531442846"><ele>40.0</ele><time>2026-05-01T16:29:34.998Z</time></trkpt><trkpt lat="43.77903211697975" lon="10.917308739720058"><ele>40.0</ele><time>2026-05-01T16:29:37.998Z</time></trkpt><trkpt lat="43.778967207281184" lon="10.91733294974911"><ele>40.0</ele><time>2026-05-01T16:29:40.998Z</time></trkpt><trkpt lat="43.778890166157474" lon="10.917350094578783"><ele>40.0</ele><time>2026-05-01T16:29:44.998Z</time></trkpt><trkpt lat="43.778825309051534" lon="10.917342507092052"><ele>40.0</ele><time>2026-05-01T16:29:47.998Z</time></trkpt><trkpt lat="43.77876187596574" lon="10.917337841388125"><ele>40.0</ele><time>2026-05-01T16:29:50.998Z</time></trkpt><trkpt lat="43.77868874859995" lon="10.917340531875777"><ele>40.0</ele><time>2026-05-01T16:29:53.998Z</time></trkpt><trkpt lat="43.77860785674098" lon="10.917364688782474"><ele>40.0</ele><time>2026-05-01T16:29:56.998Z</time></trkpt><trkpt lat="43.77853082045643" lon="10.917381883653025"><ele>39.857142857142854</ele><time>2026-05-01T16:29:59.997Z</time></trkpt><trkpt lat="43.77846166078843" lon="10.917405548594827"><ele>39.714285714285715</ele><time>2026-05-01T16:30:02.997Z</time></trkpt><trkpt lat="43.77839419059616" lon="10.917433153802305"><ele>39.57142857142857</ele><time>2026-05-01T16:30:05.997Z</time></trkpt><trkpt lat="43.778328502177274" lon="10.917463653901892"><ele>39.42857142857143</ele><time>2026-05-01T16:30:08.997Z</time></trkpt><trkpt lat="43.77826113426025" lon="10.917486441964558"><ele>39.285714285714285</ele><time>2026-05-01T16:30:12.997Z</time></trkpt><trkpt lat="43.778186947711596" lon="10.91751654715679"><ele>39.142857142857146</ele><time>2026-05-01T16:30:17.997Z</time></trkpt><trkpt lat="43.778116717117236" lon="10.917547516623253"><ele>39.0</ele><time>2026-05-01T16:30:21.997Z</time></trkpt><trkpt lat="43.77803911783359" lon="10.91757711220493"><ele>39.166666666666664</ele><time>2026-05-01T16:30:24.997Z</time></trkpt><trkpt lat="43.777961164747104" lon="10.917582442406843"><ele>39.333333333333336</ele><time>2026-05-01T16:30:27.997Z</time></trkpt><trkpt lat="43.77788519032792" lon="10.917601402621434"><ele>39.5</ele><time>2026-05-01T16:30:30.997Z</time></trkpt><trkpt lat="43.77780676762161" lon="10.917619590158937"><ele>39.66666666666667</ele><time>2026-05-01T16:30:33.997Z</time></trkpt><trkpt lat="43.777722406436254" lon="10.917624978988563"><ele>39.833333333333336</ele><time>2026-05-01T16:30:36.997Z</time></trkpt><trkpt lat="43.7776396561696" lon="10.917621781427377"><ele>40.0</ele><time>2026-05-01T16:30:39.997Z</time></trkpt><trkpt lat="43.777558779474816" lon="10.917633088156181"><ele>40.0</ele><time>2026-05-01T16:30:42.997Z</time></trkpt><trkpt lat="43.77749470552072" lon="10.917663097858297"><ele>40.0</ele><time>2026-05-01T16:30:45.997Z</time></trkpt><trkpt lat="43.77742393533959" lon="10.917681309672686"><ele>40.0</ele><time>2026-05-01T16:30:48.997Z</time></trkpt><trkpt lat="43.77735368041459" lon="10.917693873508995"><ele>40.0</ele><time>2026-05-01T16:30:51.997Z</time></trkpt><trkpt lat="43.77728665119654" lon="10.917705116278986"><ele>40.0</ele><time>2026-05-01T16:30:54.997Z</time></trkpt><trkpt lat="43.77721827226935" lon="10.917719155724832"><ele>40.0</ele><time>2026-05-01T16:30:57.997Z</time></trkpt><trkpt lat="43.77714701320249" lon="10.917733625569879"><ele>40.0</ele><time>2026-05-01T16:31:00.997Z</time></trkpt><trkpt lat="43.777076919952975" lon="10.917727750517065"><ele>40.0</ele><time>2026-05-01T16:31:03.997Z</time></trkpt><trkpt lat="43.77700354055419" lon="10.917731418199491"><ele>40.0</ele><time>2026-05-01T16:31:06.997Z</time></trkpt><trkpt lat="43.776926860109285" lon="10.917758816500205"><ele>40.0</ele><time>2026-05-01T16:31:09.997Z</time></trkpt><trkpt lat="43.77685321154028" lon="10.917788818705716"><ele>40.0</ele><time>2026-05-01T16:31:12.997Z</time></trkpt><trkpt lat="43.77678362363596" lon="10.917807303131598"><ele>40.0</ele><time>2026-05-01T16:31:15.997Z</time></trkpt><trkpt lat="43.77671067912724" lon="10.917821268299527"><ele>40.0</ele><time>2026-05-01T16:31:18.997Z</time></trkpt><trkpt lat="43.77663398344185" lon="10.91784251383043"><ele>39.857142857142854</ele><time>2026-05-01T16:31:21.997Z</time></trkpt><trkpt lat="43.77656278505513" lon="10.91786295875301"><ele>39.714285714285715</ele><time>2026-05-01T16:31:24.997Z</time></trkpt><trkpt lat="43.776493714172304" lon="10.91788551470784"><ele>39.57142857142857</ele><time>2026-05-01T16:31:27.997Z</time></trkpt><trkpt lat="43.77642142625111" lon="10.917895129754966"><ele>39.42857142857143</ele><time>2026-05-01T16:31:30.997Z</time></trkpt><trkpt lat="43.77634272292256" lon="10.917906289115919"><ele>39.285714285714285</ele><time>2026-05-01T16:31:33.997Z</time></trkpt><trkpt lat="43.776277158161605" lon="10.91792437127111"><ele>39.142857142857146</ele><time>2026-05-01T16:31:36.997Z</time></trkpt><trkpt lat="43.776204265216755" lon="10.917946077325148"><ele>39.0</ele><time>2026-05-01T16:31:39.996Z</time></trkpt><trkpt lat="43.776132585767655" lon="10.917971471749686"><ele>39.0</ele><time>2026-05-01T16:31:42.996Z</time></trkpt><trkpt lat="43.77606028147659" lon="10.917979890578094"><ele>39.0</ele><time>2026-05-01T16:31:45.996Z</time></trkpt><trkpt lat="43.77598442615297" lon="10.917998854110794"><ele>39.0</ele><time>2026-05-01T16:31:48.996Z</time></trkpt><trkpt lat="43.77591663128565" lon="10.918016676560784"><ele>39.0</ele><time>2026-05-01T16:31:51.996Z</time></trkpt><trkpt lat="43.77584146625872" lon="10.918023833940639"><ele>39.0</ele><time>2026-05-01T16:31:54.996Z</time></trkpt><trkpt lat="43.775769362438275" lon="10.918035490506156"><ele>39.0</ele><time>2026-05-01T16:31:57.996Z</time></trkpt><trkpt lat="43.7756907768171" lon="10.91805483088434"><ele>39.0</ele><time>2026-05-01T16:32:00.996Z</time></trkpt><trkpt lat="43.775621965793476" lon="10.918064976486683"><ele>38.833333333333336</ele><time>2026-05-01T16:32:03.996Z</time></trkpt><trkpt lat="43.775547993012005" lon="10.918086426153067"><ele>38.666666666666664</ele><time>2026-05-01T16:32:06.996Z</time></trkpt><trkpt lat="43.775468084804466" lon="10.918095309089063"><ele>38.5</ele><time>2026-05-01T16:32:09.996Z</time></trkpt><trkpt lat="43.7753877168125" lon="10.918092376814531"><ele>38.33333333333333</ele><time>2026-05-01T16:32:12.996Z</time></trkpt><trkpt lat="43.775314108967734" lon="10.918102678342368"><ele>38.166666666666664</ele><time>2026-05-01T16:32:15.996Z</time></trkpt><trkpt lat="43.77524188770805" lon="10.918114206995767"><ele>38.0</ele><time>2026-05-01T16:32:18.996Z</time></trkpt><trkpt lat="43.775163620325586" lon="10.918130767475317"><ele>37.714285714285715</ele><time>2026-05-01T16:32:21.996Z</time></trkpt><trkpt lat="43.7750900190075" lon="10.91817178072498"><ele>37.42857142857143</ele><time>2026-05-01T16:32:24.996Z</time></trkpt><trkpt lat="43.77502041048083" lon="10.918193150634416"><ele>37.142857142857146</ele><time>2026-05-01T16:32:27.996Z</time></trkpt><trkpt lat="43.77495516801407" lon="10.918216374353063"><ele>36.85714285714286</ele><time>2026-05-01T16:32:30.996Z</time></trkpt><trkpt lat="43.77487931789273" lon="10.918217261217997"><ele>36.57142857142857</ele><time>2026-05-01T16:32:33.996Z</time></trkpt><trkpt lat="43.77480564214033" lon="10.91823906670624"><ele>36.28571428571429</ele><time>2026-05-01T16:32:36.996Z</time></trkpt><trkpt lat="43.77472802721942" lon="10.918253394972373"><ele>36.0</ele><time>2026-05-01T16:32:39.996Z</time></trkpt><trkpt lat="43.77465804824308" lon="10.918267513296923"><ele>36.00000000000001</ele><time>2026-05-01T16:32:42.996Z</time></trkpt><trkpt lat="43.77458474731665" lon="10.918301903593353"><ele>36.0</ele><time>2026-05-01T16:32:45.996Z</time></trkpt><trkpt lat="43.77451553918767" lon="10.918314563253398"><ele>36.0</ele><time>2026-05-01T16:32:48.996Z</time></trkpt><trkpt lat="43.7744412479851" lon="10.91832981209083"><ele>36.0</ele><time>2026-05-01T16:32:51.996Z</time></trkpt><trkpt lat="43.77437813385044" lon="10.918349012464768"><ele>36.0</ele><time>2026-05-01T16:32:54.996Z</time></trkpt><trkpt lat="43.774306990674674" lon="10.918359870333822"><ele>36.00000000000001</ele><time>2026-05-01T16:32:57.996Z</time></trkpt><trkpt lat="43.77424193306563" lon="10.918391831996251"><ele>36.0</ele><time>2026-05-01T16:33:00.996Z</time></trkpt><trkpt lat="43.77417515551654" lon="10.918416938420577"><ele>36.142857142857146</ele><time>2026-05-01T16:33:03.996Z</time></trkpt><trkpt lat="43.77411232008891" lon="10.918434167468945"><ele>36.285714285714285</ele><time>2026-05-01T16:33:06.996Z</time></trkpt><trkpt lat="43.77403743301021" lon="10.918441348085251"><ele>36.42857142857143</ele><time>2026-05-01T16:33:09.996Z</time></trkpt><trkpt lat="43.77397082105514" lon="10.918450439389156"><ele>36.57142857142857</ele><time>2026-05-01T16:33:12.996Z</time></trkpt><trkpt lat="43.773906510206004" lon="10.918477195828471"><ele>36.714285714285715</ele><time>2026-05-01T16:33:15.996Z</time></trkpt><trkpt lat="43.77384968260672" lon="10.918526089394069"><ele>36.85714285714286</ele><time>2026-05-01T16:33:18.995Z</time></trkpt><trkpt lat="43.77379832514534" lon="10.918598603156418"><ele>37.0</ele><time>2026-05-01T16:33:21.995Z</time></trkpt><trkpt lat="43.77375556271907" lon="10.918674675523523"><ele>37.0</ele><time>2026-05-01T16:33:24.995Z</time></trkpt><trkpt lat="43.7737323493925" lon="10.918768591908838"><ele>37.0</ele><time>2026-05-01T16:33:27.995Z</time></trkpt><trkpt lat="43.773719359062596" lon="10.918864175309546"><ele>37.0</ele><time>2026-05-01T16:33:30.995Z</time></trkpt><trkpt lat="43.77376707773449" lon="10.918935456537907"><ele>37.0</ele><time>2026-05-01T16:33:33.995Z</time></trkpt><trkpt lat="43.77378570517338" lon="10.919030662599502"><ele>37.0</ele><time>2026-05-01T16:33:36.995Z</time></trkpt><trkpt lat="43.77373669106215" lon="10.919093660652452"><ele>37.0</ele><time>2026-05-01T16:33:39.995Z</time></trkpt><trkpt lat="43.7736692189154" lon="10.919111867711447"><ele>37.0</ele><time>2026-05-01T16:33:42.995Z</time></trkpt><trkpt lat="43.7735909268385" lon="10.919088291592374"><ele>37.0</ele><time>2026-05-01T16:33:46.995Z</time></trkpt><trkpt lat="43.773530414985316" lon="10.91903298594357"><ele>37.0</ele><time>2026-05-01T16:33:49.995Z</time></trkpt><trkpt lat="43.77347277452685" lon="10.918981928438413"><ele>37.0</ele><time>2026-05-01T16:33:52.995Z</time></trkpt><trkpt lat="43.773412720534516" lon="10.91893010214823"><ele>37.0</ele><time>2026-05-01T16:33:55.995Z</time></trkpt><trkpt lat="43.773356358633" lon="10.918881358149243"><ele>37.0</ele><time>2026-05-01T16:33:58.995Z</time></trkpt><trkpt lat="43.77329665106015" lon="10.918814436428942"><ele>37.0</ele><time>2026-05-01T16:34:01.995Z</time></trkpt><trkpt lat="43.77324520725813" lon="10.918748789644242"><ele>37.0</ele><time>2026-05-01T16:34:04.995Z</time></trkpt><trkpt lat="43.7732015329795" lon="10.918674594348904"><ele>36.833333333333336</ele><time>2026-05-01T16:34:07.995Z</time></trkpt><trkpt lat="43.773125613295555" lon="10.918619394538961"><ele>36.66666666666667</ele><time>2026-05-01T16:34:11.995Z</time></trkpt><trkpt lat="43.77306043229359" lon="10.91859915011341"><ele>36.5</ele><time>2026-05-01T16:34:14.995Z</time></trkpt><trkpt lat="43.77299285994651" lon="10.918583346210227"><ele>36.333333333333336</ele><time>2026-05-01T16:34:17.995Z</time></trkpt><trkpt lat="43.77292721667786" lon="10.91856317133302"><ele>36.166666666666664</ele><time>2026-05-01T16:34:20.995Z</time></trkpt><trkpt lat="43.77284427688511" lon="10.918540007925369"><ele>36.0</ele><time>2026-05-01T16:34:24.995Z</time></trkpt><trkpt lat="43.77276889743078" lon="10.918514319650056"><ele>36.00000000000001</ele><time>2026-05-01T16:34:27.995Z</time></trkpt><trkpt lat="43.77269821615876" lon="10.91849981378142"><ele>36.0</ele><time>2026-05-01T16:34:30.995Z</time></trkpt><trkpt lat="43.77263313954311" lon="10.918495165441058"><ele>36.0</ele><time>2026-05-01T16:34:33.995Z</time></trkpt><trkpt lat="43.772561027824906" lon="10.918480670512531"><ele>36.0</ele><time>2026-05-01T16:34:36.995Z</time></trkpt><trkpt lat="43.77248837070667" lon="10.918458076013632"><ele>36.0</ele><time>2026-05-01T16:34:39.995Z</time></trkpt><trkpt lat="43.77241923808471" lon="10.918434256560687"><ele>36.00000000000001</ele><time>2026-05-01T16:34:42.995Z</time></trkpt><trkpt lat="43.77234123306388" lon="10.918428415390835"><ele>36.0</ele><time>2026-05-01T16:34:45.995Z</time></trkpt><trkpt lat="43.77227187237072" lon="10.918404047736951"><ele>36.0</ele><time>2026-05-01T16:34:48.995Z</time></trkpt><trkpt lat="43.77220204131708" lon="10.918394055226354"><ele>36.0</ele><time>2026-05-01T16:34:51.995Z</time></trkpt><trkpt lat="43.77212545181826" lon="10.91838001179847"><ele>36.0</ele><time>2026-05-01T16:34:54.995Z</time></trkpt><trkpt lat="43.77204516100865" lon="10.918364919233351"><ele>36.0</ele><time>2026-05-01T16:34:57.994Z</time></trkpt><trkpt lat="43.77196230796435" lon="10.918364196472696"><ele>36.0</ele><time>2026-05-01T16:35:00.994Z</time></trkpt><trkpt lat="43.771888075547764" lon="10.918375158461284"><ele>36.0</ele><time>2026-05-01T16:35:03.994Z</time></trkpt><trkpt lat="43.77181830421183" lon="10.918352811095511"><ele>36.00000000000001</ele><time>2026-05-01T16:35:06.994Z</time></trkpt><trkpt lat="43.77174040239677" lon="10.918339789258173"><ele>36.0</ele><time>2026-05-01T16:35:09.994Z</time></trkpt><trkpt lat="43.77165581099108" lon="10.918323105695428"><ele>36.0</ele><time>2026-05-01T16:35:12.994Z</time></trkpt><trkpt lat="43.771584790713476" lon="10.918318326284606"><ele>36.0</ele><time>2026-05-01T16:35:15.994Z</time></trkpt><trkpt lat="43.77151422461355" lon="10.918310919416975"><ele>36.0</ele><time>2026-05-01T16:35:18.994Z</time></trkpt><trkpt lat="43.77144538757772" lon="10.918321343350492"><ele>36.00000000000001</ele><time>2026-05-01T16:35:21.994Z</time></trkpt><trkpt lat="43.77142951191634" lon="10.9184215331774"><ele>36.0</ele><time>2026-05-01T16:35:24.994Z</time></trkpt><trkpt lat="43.77142447207361" lon="10.918534388999769"><ele>37.00000000000001</ele><time>2026-05-01T16:35:28.994Z</time></trkpt><trkpt lat="43.77140673520265" lon="10.918627968478981"><ele>38.0</ele><time>2026-05-01T16:35:32.994Z</time></trkpt><trkpt lat="43.771377584563844" lon="10.918719037274467"><ele>39.0</ele><time>2026-05-01T16:35:36.994Z</time></trkpt><trkpt lat="43.77132204050032" lon="10.91876486154062"><ele>40.0</ele><time>2026-05-01T16:35:40.994Z</time></trkpt><trkpt lat="43.771248835015506" lon="10.918774600997418"><ele>41.0</ele><time>2026-05-01T16:35:44.994Z</time></trkpt><trkpt lat="43.77117371025669" lon="10.918745540827876"><ele>42.00000000000001</ele><time>2026-05-01T16:35:48.994Z</time></trkpt><trkpt lat="43.77110733587769" lon="10.918736342953087"><ele>43.0</ele><time>2026-05-01T16:35:52.994Z</time></trkpt><trkpt lat="43.771035341691174" lon="10.918743309508088"><ele>43.00000000000001</ele><time>2026-05-01T16:35:56.994Z</time></trkpt><trkpt lat="43.77101829056514" lon="10.91883153440093"><ele>43.0</ele><time>2026-05-01T16:36:00.994Z</time></trkpt><trkpt lat="43.771057396407" lon="10.918909587849694"><ele>43.0</ele><time>2026-05-01T16:36:03.994Z</time></trkpt><trkpt lat="43.77111826751044" lon="10.918985267489836"><ele>43.0</ele><time>2026-05-01T16:36:07.994Z</time></trkpt><trkpt lat="43.77116909310902" lon="10.919052990969108"><ele>43.0</ele><time>2026-05-01T16:36:11.994Z</time></trkpt><trkpt lat="43.77121555590995" lon="10.919136045482132"><ele>43.00000000000001</ele><time>2026-05-01T16:36:15.994Z</time></trkpt><trkpt lat="43.77127524804539" lon="10.91919190659352"><ele>43.0</ele><time>2026-05-01T16:36:19.994Z</time></trkpt><trkpt lat="43.771319490203744" lon="10.919267469075486"><ele>43.714285714285715</ele><time>2026-05-01T16:36:23.994Z</time></trkpt><trkpt lat="43.77136264510583" lon="10.919331187557859"><ele>44.42857142857143</ele><time>2026-05-01T16:36:27.994Z</time></trkpt><trkpt lat="43.77140924900371" lon="10.919403617336735"><ele>45.14285714285714</ele><time>2026-05-01T16:36:31.994Z</time></trkpt><trkpt lat="43.77145870484616" lon="10.919472307081607"><ele>45.85714285714286</ele><time>2026-05-01T16:36:35.993Z</time></trkpt><trkpt lat="43.77150279383807" lon="10.91954143084091"><ele>46.57142857142857</ele><time>2026-05-01T16:36:39.993Z</time></trkpt><trkpt lat="43.77154917704542" lon="10.91961881102937"><ele>47.285714285714285</ele><time>2026-05-01T16:36:43.993Z</time></trkpt><trkpt lat="43.77160529658969" lon="10.919675044542029"><ele>48.0</ele><time>2026-05-01T16:36:47.993Z</time></trkpt><trkpt lat="43.77164651133251" lon="10.919758084555045"><ele>47.99999999999999</ele><time>2026-05-01T16:36:51.993Z</time></trkpt><trkpt lat="43.77169250281913" lon="10.919829265511957"><ele>48.0</ele><time>2026-05-01T16:36:55.993Z</time></trkpt><trkpt lat="43.771735929483455" lon="10.91989802766129"><ele>48.0</ele><time>2026-05-01T16:36:59.993Z</time></trkpt><trkpt lat="43.771788793585486" lon="10.919969940865519"><ele>48.0</ele><time>2026-05-01T16:37:03.993Z</time></trkpt><trkpt lat="43.771837148966235" lon="10.920044203028581"><ele>48.0</ele><time>2026-05-01T16:37:07.993Z</time></trkpt><trkpt lat="43.771877098029634" lon="10.920121599258646"><ele>47.99999999999999</ele><time>2026-05-01T16:37:11.993Z</time></trkpt><trkpt lat="43.77193155656414" lon="10.920175974616821"><ele>48.0</ele><time>2026-05-01T16:37:15.993Z</time></trkpt><trkpt lat="43.771975515128595" lon="10.920257784190147"><ele>48.14285714285714</ele><time>2026-05-01T16:37:19.993Z</time></trkpt><trkpt lat="43.77202805632517" lon="10.920333122275283"><ele>48.285714285714285</ele><time>2026-05-01T16:37:23.993Z</time></trkpt><trkpt lat="43.772072536054644" lon="10.920404384418147"><ele>48.42857142857143</ele><time>2026-05-01T16:37:27.993Z</time></trkpt><trkpt lat="43.77212294131428" lon="10.920474756623308"><ele>48.57142857142857</ele><time>2026-05-01T16:37:31.993Z</time></trkpt><trkpt lat="43.772153891468776" lon="10.920563853770409"><ele>48.714285714285715</ele><time>2026-05-01T16:37:35.993Z</time></trkpt><trkpt lat="43.77218909467644" lon="10.920645442784881"><ele>48.857142857142854</ele><time>2026-05-01T16:37:39.993Z</time></trkpt><trkpt lat="43.77222200137205" lon="10.920744603917594"><ele>49.0</ele><time>2026-05-01T16:37:43.993Z</time></trkpt><trkpt lat="43.772243816738204" lon="10.920840342927036"><ele>49.857142857142854</ele><time>2026-05-01T16:37:47.993Z</time></trkpt><trkpt lat="43.772268599328214" lon="10.920940787836695"><ele>50.714285714285715</ele><time>2026-05-01T16:37:51.993Z</time></trkpt><trkpt lat="43.772311512488145" lon="10.921023586978674"><ele>51.57142857142857</ele><time>2026-05-01T16:37:55.993Z</time></trkpt><trkpt lat="43.77234282098237" lon="10.921119659273801"><ele>52.42857142857143</ele><time>2026-05-01T16:37:59.993Z</time></trkpt><trkpt lat="43.77237805296843" lon="10.92120334908179"><ele>53.285714285714285</ele><time>2026-05-01T16:38:03.993Z</time></trkpt><trkpt lat="43.77241739221804" lon="10.921298625387507"><ele>54.14285714285714</ele><time>2026-05-01T16:38:07.993Z</time></trkpt><trkpt lat="43.772466469768446" lon="10.921370932573518"><ele>55.0</ele><time>2026-05-01T16:38:11.993Z</time></trkpt><trkpt lat="43.77250479921529" lon="10.921474204801541"><ele>54.99999999999999</ele><time>2026-05-01T16:38:15.992Z</time></trkpt><trkpt lat="43.772541687683166" lon="10.92156562850912"><ele>55.0</ele><time>2026-05-01T16:38:19.992Z</time></trkpt><trkpt lat="43.77257148204923" lon="10.92165594531879"><ele>55.0</ele><time>2026-05-01T16:38:23.992Z</time></trkpt><trkpt lat="43.77260497101935" lon="10.921742163705197"><ele>55.0</ele><time>2026-05-01T16:38:27.992Z</time></trkpt><trkpt lat="43.77263321830901" lon="10.92182636181317"><ele>55.0</ele><time>2026-05-01T16:38:31.992Z</time></trkpt><trkpt lat="43.772668538421684" lon="10.921910960227654"><ele>54.99999999999999</ele><time>2026-05-01T16:38:35.992Z</time></trkpt><trkpt lat="43.77269836396084" lon="10.922017295758907"><ele>55.0</ele><time>2026-05-01T16:38:39.992Z</time></trkpt><trkpt lat="43.772726620210875" lon="10.922112716885453"><ele>54.666666666666664</ele><time>2026-05-01T16:38:43.992Z</time></trkpt><trkpt lat="43.77275177755919" lon="10.922220673003253"><ele>54.33333333333333</ele><time>2026-05-01T16:38:47.992Z</time></trkpt><trkpt lat="43.772773354053896" lon="10.922329352700581"><ele>54.0</ele><time>2026-05-01T16:38:51.992Z</time></trkpt><trkpt lat="43.77278780648202" lon="10.922435518731508"><ele>53.66666666666667</ele><time>2026-05-01T16:38:55.992Z</time></trkpt><trkpt lat="43.77280604018817" lon="10.922522478335946"><ele>53.333333333333336</ele><time>2026-05-01T16:38:58.992Z</time></trkpt><trkpt lat="43.77283329197691" lon="10.922624217978976"><ele>53.0</ele><time>2026-05-01T16:39:02.992Z</time></trkpt><trkpt lat="43.772872679649396" lon="10.922720730283341"><ele>54.00000000000001</ele><time>2026-05-01T16:39:06.992Z</time></trkpt><trkpt lat="43.77288681061177" lon="10.922805995967362"><ele>55.0</ele><time>2026-05-01T16:39:09.992Z</time></trkpt><trkpt lat="43.77291590230221" lon="10.922916928992729"><ele>56.0</ele><time>2026-05-01T16:39:13.992Z</time></trkpt><trkpt lat="43.772955263179924" lon="10.923016029600396"><ele>57.0</ele><time>2026-05-01T16:39:17.992Z</time></trkpt><trkpt lat="43.772978281497785" lon="10.923125367013492"><ele>58.00000000000001</ele><time>2026-05-01T16:39:21.992Z</time></trkpt><trkpt lat="43.772997523552405" lon="10.923235546327943"><ele>59.0</ele><time>2026-05-01T16:39:25.992Z</time></trkpt><trkpt lat="43.77301607573515" lon="10.923351541405717"><ele>59.57142857142857</ele><time>2026-05-01T16:39:29.992Z</time></trkpt><trkpt lat="43.77302721873903" lon="10.923443395186842"><ele>60.142857142857146</ele><time>2026-05-01T16:39:32.992Z</time></trkpt><trkpt lat="43.77305387714856" lon="10.923545452630476"><ele>60.714285714285715</ele><time>2026-05-01T16:39:36.992Z</time></trkpt><trkpt lat="43.77308043289354" lon="10.923640339831538"><ele>61.285714285714285</ele><time>2026-05-01T16:39:40.992Z</time></trkpt><trkpt lat="43.77309375502291" lon="10.923742147740194"><ele>61.85714285714286</ele><time>2026-05-01T16:39:44.992Z</time></trkpt><trkpt lat="43.77308738548172" lon="10.923848322989294"><ele>62.42857142857143</ele><time>2026-05-01T16:39:48.992Z</time></trkpt><trkpt lat="43.77308575555706" lon="10.923952006488083"><ele>63.0</ele><time>2026-05-01T16:39:52.991Z</time></trkpt><trkpt lat="43.77307904492648" lon="10.924043696012419"><ele>63.0</ele><time>2026-05-01T16:39:55.991Z</time></trkpt><trkpt lat="43.77307241982575" lon="10.924145447046318"><ele>63.0</ele><time>2026-05-01T16:39:59.991Z</time></trkpt><trkpt lat="43.77306105549445" lon="10.924252467834345"><ele>63.0</ele><time>2026-05-01T16:40:03.991Z</time></trkpt><trkpt lat="43.773034194484715" lon="10.924358678895294"><ele>63.0</ele><time>2026-05-01T16:40:07.991Z</time></trkpt><trkpt lat="43.7730084566262" lon="10.924463116575698"><ele>63.0</ele><time>2026-05-01T16:40:11.991Z</time></trkpt><trkpt lat="43.77298819728011" lon="10.924569405779817"><ele>63.0</ele><time>2026-05-01T16:40:15.991Z</time></trkpt><trkpt lat="43.772964844578055" lon="10.924675277857094"><ele>63.14285714285714</ele><time>2026-05-01T16:40:19.991Z</time></trkpt><trkpt lat="43.77294455945753" lon="10.924778978131418"><ele>63.285714285714285</ele><time>2026-05-01T16:40:23.991Z</time></trkpt><trkpt lat="43.77292205336681" lon="10.924882473484766"><ele>63.42857142857143</ele><time>2026-05-01T16:40:27.991Z</time></trkpt><trkpt lat="43.77288379610848" lon="10.924964698681638"><ele>63.57142857142857</ele><time>2026-05-01T16:40:31.991Z</time></trkpt><trkpt lat="43.77286612539015" lon="10.925058931445394"><ele>63.71428571428571</ele><time>2026-05-01T16:40:35.991Z</time></trkpt><trkpt lat="43.77283630811572" lon="10.925138378895321"><ele>63.857142857142854</ele><time>2026-05-01T16:40:39.991Z</time></trkpt><trkpt lat="43.77282362672493" lon="10.925227446709293"><ele>64.0</ele><time>2026-05-01T16:40:43.991Z</time></trkpt><trkpt lat="43.77280723415576" lon="10.925313761187835"><ele>64.14285714285714</ele><time>2026-05-01T16:40:47.991Z</time></trkpt><trkpt lat="43.772787768795276" lon="10.925400791161595"><ele>64.28571428571428</ele><time>2026-05-01T16:40:51.991Z</time></trkpt><trkpt lat="43.77277021400841" lon="10.92549352609472"><ele>64.42857142857143</ele><time>2026-05-01T16:40:55.991Z</time></trkpt><trkpt lat="43.77274912353092" lon="10.925584505687429"><ele>64.57142857142857</ele><time>2026-05-01T16:40:59.991Z</time></trkpt><trkpt lat="43.77273143106345" lon="10.925668270353839"><ele>64.71428571428572</ele><time>2026-05-01T16:41:03.991Z</time></trkpt><trkpt lat="43.772711373805244" lon="10.92576566234001"><ele>64.85714285714286</ele><time>2026-05-01T16:41:07.991Z</time></trkpt><trkpt lat="43.77270800061115" lon="10.925862778329957"><ele>65.0</ele><time>2026-05-01T16:41:11.991Z</time></trkpt><trkpt lat="43.77269582685243" lon="10.925967834861193"><ele>65.57142857142858</ele><time>2026-05-01T16:41:15.991Z</time></trkpt><trkpt lat="43.77268420412592" lon="10.926064761444858"><ele>66.14285714285714</ele><time>2026-05-01T16:41:18.991Z</time></trkpt><trkpt lat="43.772676686641" lon="10.926178789261842"><ele>66.71428571428572</ele><time>2026-05-01T16:41:22.991Z</time></trkpt><trkpt lat="43.77267141749513" lon="10.926278369908232"><ele>67.28571428571429</ele><time>2026-05-01T16:41:25.991Z</time></trkpt><trkpt lat="43.7726623873224" lon="10.926367907035226"><ele>67.85714285714286</ele><time>2026-05-01T16:41:28.991Z</time></trkpt><trkpt lat="43.77265775803605" lon="10.926462474135342"><ele>68.42857142857143</ele><time>2026-05-01T16:41:31.99Z</time></trkpt><trkpt lat="43.772645903771455" lon="10.926572055763152"><ele>69.0</ele><time>2026-05-01T16:41:34.99Z</time></trkpt><trkpt lat="43.77263840854759" lon="10.92667097077968"><ele>68.5</ele><time>2026-05-01T16:41:37.99Z</time></trkpt><trkpt lat="43.772637049494506" lon="10.92678117107253"><ele>68.0</ele><time>2026-05-01T16:41:40.99Z</time></trkpt><trkpt lat="43.772632901335925" lon="10.926884639257688"><ele>67.5</ele><time>2026-05-01T16:41:43.99Z</time></trkpt><trkpt lat="43.77263456446366" lon="10.92699824133004"><ele>67.0</ele><time>2026-05-01T16:41:46.99Z</time></trkpt><trkpt lat="43.77264101336132" lon="10.927108236939343"><ele>66.5</ele><time>2026-05-01T16:41:49.99Z</time></trkpt><trkpt lat="43.77264173594076" lon="10.92721402729078"><ele>66.0</ele><time>2026-05-01T16:41:52.99Z</time></trkpt><trkpt lat="43.77263815879099" lon="10.92731323059993"><ele>66.0</ele><time>2026-05-01T16:41:55.99Z</time></trkpt><trkpt lat="43.77264145920896" lon="10.927419503756296"><ele>66.0</ele><time>2026-05-01T16:41:58.99Z</time></trkpt><trkpt lat="43.77264639733744" lon="10.927516048779406"><ele>66.0</ele><time>2026-05-01T16:42:01.99Z</time></trkpt><trkpt lat="43.77263616846675" lon="10.927619179390067"><ele>66.0</ele><time>2026-05-01T16:42:04.99Z</time></trkpt><trkpt lat="43.77263647595385" lon="10.927713819640633"><ele>66.0</ele><time>2026-05-01T16:42:07.99Z</time></trkpt><trkpt lat="43.77263386575557" lon="10.927818461643032"><ele>66.0</ele><time>2026-05-01T16:42:10.99Z</time></trkpt><trkpt lat="43.77263595270017" lon="10.927923047723658"><ele>66.0</ele><time>2026-05-01T16:42:13.99Z</time></trkpt><trkpt lat="43.77262588056615" lon="10.928011978796276"><ele>66.42857142857143</ele><time>2026-05-01T16:42:16.99Z</time></trkpt><trkpt lat="43.77261598584548" lon="10.928106713638249"><ele>66.85714285714286</ele><time>2026-05-01T16:42:19.99Z</time></trkpt><trkpt lat="43.772603116013464" lon="10.928195661598014"><ele>67.28571428571429</ele><time>2026-05-01T16:42:22.99Z</time></trkpt><trkpt lat="43.772573890788266" lon="10.928299607746405"><ele>67.71428571428572</ele><time>2026-05-01T16:42:26.99Z</time></trkpt><trkpt lat="43.77253563261585" lon="10.928378722019021"><ele>68.14285714285715</ele><time>2026-05-01T16:42:29.99Z</time></trkpt><trkpt lat="43.77250256376101" lon="10.928486631976353"><ele>68.57142857142857</ele><time>2026-05-01T16:42:33.99Z</time></trkpt><trkpt lat="43.772496481881554" lon="10.928580723144448"><ele>69.0</ele><time>2026-05-01T16:42:36.99Z</time></trkpt><trkpt lat="43.7724513595226" lon="10.928651269609512"><ele>69.71428571428572</ele><time>2026-05-01T16:42:39.99Z</time></trkpt><trkpt lat="43.772404127650276" lon="10.928718266346237"><ele>70.42857142857143</ele><time>2026-05-01T16:42:42.99Z</time></trkpt><trkpt lat="43.77237040726845" lon="10.928795671696177"><ele>71.14285714285714</ele><time>2026-05-01T16:42:45.99Z</time></trkpt><trkpt lat="43.77231489170931" lon="10.928891695033347"><ele>71.85714285714286</ele><time>2026-05-01T16:42:49.99Z</time></trkpt><trkpt lat="43.77226154819195" lon="10.928959828236216"><ele>72.57142857142857</ele><time>2026-05-01T16:42:52.99Z</time></trkpt><trkpt lat="43.77221891173177" lon="10.929038432512504"><ele>73.28571428571429</ele><time>2026-05-01T16:42:55.99Z</time></trkpt><trkpt lat="43.77217397072739" lon="10.929108640085277"><ele>74.0</ele><time>2026-05-01T16:42:58.99Z</time></trkpt><trkpt lat="43.772125249379265" lon="10.92917717262468"><ele>74.42857142857143</ele><time>2026-05-01T16:43:01.99Z</time></trkpt><trkpt lat="43.77208503587892" lon="10.929248113350852"><ele>74.85714285714286</ele><time>2026-05-01T16:43:04.99Z</time></trkpt><trkpt lat="43.77203478079111" lon="10.929301736845837"><ele>75.28571428571428</ele><time>2026-05-01T16:43:07.99Z</time></trkpt><trkpt lat="43.77197234840835" lon="10.929336031768846"><ele>75.71428571428572</ele><time>2026-05-01T16:43:10.989Z</time></trkpt><trkpt lat="43.7719189968301" lon="10.92939151218417"><ele>76.14285714285714</ele><time>2026-05-01T16:43:13.989Z</time></trkpt><trkpt lat="43.77183378007935" lon="10.929429893677018"><ele>76.57142857142857</ele><time>2026-05-01T16:43:17.989Z</time></trkpt><trkpt lat="43.77176207051572" lon="10.92948807885516"><ele>77.0</ele><time>2026-05-01T16:43:21.989Z</time></trkpt><trkpt lat="43.77169813265019" lon="10.929505044251414"><ele>77.42857142857143</ele><time>2026-05-01T16:43:24.989Z</time></trkpt><trkpt lat="43.77164251623422" lon="10.929547648798751"><ele>77.85714285714286</ele><time>2026-05-01T16:43:27.989Z</time></trkpt><trkpt lat="43.77157714744879" lon="10.929573888737085"><ele>78.28571428571428</ele><time>2026-05-01T16:43:30.989Z</time></trkpt><trkpt lat="43.77151707429551" lon="10.929614050108276"><ele>78.71428571428572</ele><time>2026-05-01T16:43:33.989Z</time></trkpt><trkpt lat="43.771459009155016" lon="10.929648444149159"><ele>79.14285714285714</ele><time>2026-05-01T16:43:36.989Z</time></trkpt><trkpt lat="43.77140049453205" lon="10.929689514854102"><ele>79.57142857142857</ele><time>2026-05-01T16:43:39.989Z</time></trkpt><trkpt lat="43.77133822357158" lon="10.929705207850766"><ele>80.0</ele><time>2026-05-01T16:43:42.989Z</time></trkpt><trkpt lat="43.771276198149465" lon="10.929749999574357"><ele>80.0</ele><time>2026-05-01T16:43:45.989Z</time></trkpt><trkpt lat="43.771199089798934" lon="10.929795528341753"><ele>80.0</ele><time>2026-05-01T16:43:49.989Z</time></trkpt><trkpt lat="43.77114305681299" lon="10.929840545693281"><ele>80.0</ele><time>2026-05-01T16:43:52.989Z</time></trkpt><trkpt lat="43.771083354872616" lon="10.929878053029718"><ele>80.0</ele><time>2026-05-01T16:43:55.989Z</time></trkpt><trkpt lat="43.77101380339837" lon="10.929933937032487"><ele>80.0</ele><time>2026-05-01T16:43:59.989Z</time></trkpt><trkpt lat="43.770941484877135" lon="10.929986973459988"><ele>80.0</ele><time>2026-05-01T16:44:03.989Z</time></trkpt><trkpt lat="43.770890437637355" lon="10.930043218988583"><ele>80.0</ele><time>2026-05-01T16:44:06.989Z</time></trkpt><trkpt lat="43.7708282950916" lon="10.93011960141545"><ele>80.71428571428571</ele><time>2026-05-01T16:44:10.989Z</time></trkpt><trkpt lat="43.77078852772259" lon="10.930191630577928"><ele>81.42857142857143</ele><time>2026-05-01T16:44:13.989Z</time></trkpt><trkpt lat="43.77073702707824" lon="10.930281677393495"><ele>82.14285714285714</ele><time>2026-05-01T16:44:17.989Z</time></trkpt><trkpt lat="43.77072489291483" lon="10.930368691611248"><ele>82.85714285714286</ele><time>2026-05-01T16:44:20.989Z</time></trkpt><trkpt lat="43.770696791995405" lon="10.930453964356703"><ele>83.57142857142857</ele><time>2026-05-01T16:44:24.989Z</time></trkpt><trkpt lat="43.77069143035752" lon="10.930551753829736"><ele>84.28571428571429</ele><time>2026-05-01T16:44:28.989Z</time></trkpt><trkpt lat="43.770674641974686" lon="10.930662092172053"><ele>85.0</ele><time>2026-05-01T16:44:33.989Z</time></trkpt><trkpt lat="43.77066047387783" lon="10.9307495004317"><ele>85.0</ele><time>2026-05-01T16:44:37.989Z</time></trkpt><trkpt lat="43.770654750200926" lon="10.930846526426773"><ele>85.0</ele><time>2026-05-01T16:44:41.989Z</time></trkpt><trkpt lat="43.77064742688437" lon="10.930941366047321"><ele>85.0</ele><time>2026-05-01T16:44:45.989Z</time></trkpt><trkpt lat="43.7706397003729" lon="10.93103167927607"><ele>85.0</ele><time>2026-05-01T16:44:49.988Z</time></trkpt><trkpt lat="43.77063202389327" lon="10.931129625682352"><ele>85.0</ele><time>2026-05-01T16:44:53.988Z</time></trkpt><trkpt lat="43.77063377337215" lon="10.931230044156909"><ele>85.0</ele><time>2026-05-01T16:44:57.988Z</time></trkpt><trkpt lat="43.77063557885969" lon="10.931329245680184"><ele>85.0</ele><time>2026-05-01T16:45:01.988Z</time></trkpt><trkpt lat="43.77062590025901" lon="10.931426095012801"><ele>84.66666666666666</ele><time>2026-05-01T16:45:05.988Z</time></trkpt><trkpt lat="43.770628058585544" lon="10.931530981775442"><ele>84.33333333333333</ele><time>2026-05-01T16:45:09.988Z</time></trkpt><trkpt lat="43.770614388887495" lon="10.93162321401132"><ele>84.0</ele><time>2026-05-01T16:45:13.988Z</time></trkpt><trkpt lat="43.77058426246497" lon="10.931711532365595"><ele>83.66666666666667</ele><time>2026-05-01T16:45:17.988Z</time></trkpt><trkpt lat="43.7705702652841" lon="10.931825632142589"><ele>83.33333333333334</ele><time>2026-05-01T16:45:21.988Z</time></trkpt><trkpt lat="43.77054052591272" lon="10.931932525145548"><ele>83.0</ele><time>2026-05-01T16:45:25.988Z</time></trkpt><trkpt lat="43.77050523293045" lon="10.932037483003553"><ele>83.0</ele><time>2026-05-01T16:45:29.988Z</time></trkpt><trkpt lat="43.77047522817691" lon="10.932119273696486"><ele>83.0</ele><time>2026-05-01T16:45:32.988Z</time></trkpt><trkpt lat="43.77044485056431" lon="10.93219888234641"><ele>83.0</ele><time>2026-05-01T16:45:35.988Z</time></trkpt><trkpt lat="43.77040374525149" lon="10.93227698527091"><ele>83.0</ele><time>2026-05-01T16:45:38.988Z</time></trkpt><trkpt lat="43.770371456938506" lon="10.932360250647147"><ele>83.0</ele><time>2026-05-01T16:45:41.988Z</time></trkpt><trkpt lat="43.77034250596201" lon="10.932449445619273"><ele>83.0</ele><time>2026-05-01T16:45:44.988Z</time></trkpt><trkpt lat="43.77029586357674" lon="10.93253507302778"><ele>83.0</ele><time>2026-05-01T16:45:47.988Z</time></trkpt><trkpt lat="43.770259757987034" lon="10.932619197556559"><ele>83.16666666666667</ele><time>2026-05-01T16:45:50.988Z</time></trkpt><trkpt lat="43.77022865918277" lon="10.932711840606736"><ele>83.33333333333334</ele><time>2026-05-01T16:45:53.988Z</time></trkpt><trkpt lat="43.7701817567371" lon="10.932799003128805"><ele>83.5</ele><time>2026-05-01T16:45:56.988Z</time></trkpt><trkpt lat="43.770127381670804" lon="10.932886490087771"><ele>83.66666666666667</ele><time>2026-05-01T16:45:59.988Z</time></trkpt><trkpt lat="43.770077500484184" lon="10.932966899560805"><ele>83.83333333333333</ele><time>2026-05-01T16:46:02.988Z</time></trkpt><trkpt lat="43.77002654692175" lon="10.933046225862833"><ele>84.0</ele><time>2026-05-01T16:46:05.998Z</time></trkpt><trkpt lat="43.769978989940775" lon="10.933130814955584"><ele>84.0</ele><time>2026-05-01T16:46:08.998Z</time></trkpt><trkpt lat="43.76993203304178" lon="10.933214385216825"><ele>84.0</ele><time>2026-05-01T16:46:11.998Z</time></trkpt><trkpt lat="43.76988391457454" lon="10.93330845641865"><ele>84.0</ele><time>2026-05-01T16:46:14.998Z</time></trkpt><trkpt lat="43.769854526538765" lon="10.933400096400808"><ele>84.0</ele><time>2026-05-01T16:46:17.998Z</time></trkpt><trkpt lat="43.769837031949486" lon="10.933510973005477"><ele>84.0</ele><time>2026-05-01T16:46:20.997Z</time></trkpt><trkpt lat="43.769841136049614" lon="10.933610702436107"><ele>84.0</ele><time>2026-05-01T16:46:23.997Z</time></trkpt><trkpt lat="43.76987892687277" lon="10.933701375449058"><ele>84.28571428571429</ele><time>2026-05-01T16:46:26.997Z</time></trkpt><trkpt lat="43.76995877072964" lon="10.933741331182949"><ele>84.57142857142857</ele><time>2026-05-01T16:46:30.997Z</time></trkpt><trkpt lat="43.77002167926179" lon="10.933777135250025"><ele>84.85714285714286</ele><time>2026-05-01T16:46:33.997Z</time></trkpt><trkpt lat="43.77009522539352" lon="10.933795279837769"><ele>85.14285714285714</ele><time>2026-05-01T16:46:36.997Z</time></trkpt><trkpt lat="43.77016538323017" lon="10.933797130871191"><ele>85.42857142857143</ele><time>2026-05-01T16:46:39.997Z</time></trkpt><trkpt lat="43.77023151085618" lon="10.933826851501971"><ele>85.71428571428572</ele><time>2026-05-01T16:46:42.997Z</time></trkpt><trkpt lat="43.770293855726486" lon="10.933863838779192"><ele>86.0</ele><time>2026-05-01T16:46:45.997Z</time></trkpt><trkpt lat="43.77035897383686" lon="10.93389772764145"><ele>84.28571428571429</ele><time>2026-05-01T16:46:48.997Z</time></trkpt><trkpt lat="43.77042368152822" lon="10.933934969351002"><ele>82.57142857142857</ele><time>2026-05-01T16:46:51.998Z</time></trkpt><trkpt lat="43.77049622767419" lon="10.933965879645786"><ele>80.85714285714286</ele><time>2026-05-01T16:46:54.999Z</time></trkpt><trkpt lat="43.770566448609294" lon="10.93398961726215"><ele>79.14285714285714</ele><time>2026-05-01T16:46:57.999Z</time></trkpt><trkpt lat="43.770634713922924" lon="10.93400939718121"><ele>77.42857142857143</ele><time>2026-05-01T16:47:00.999Z</time></trkpt><trkpt lat="43.77071307505549" lon="10.93403243184081"><ele>75.71428571428572</ele><time>2026-05-01T16:47:03.999Z</time></trkpt><trkpt lat="43.7707810764626" lon="10.934064517299218"><ele>74.0</ele><time>2026-05-01T16:47:06.999Z</time></trkpt><trkpt lat="43.77084883561839" lon="10.934083838578918"><ele>74.0</ele><time>2026-05-01T16:47:09.999Z</time></trkpt><trkpt lat="43.770925479642386" lon="10.934108253508692"><ele>74.0</ele><time>2026-05-01T16:47:12.999Z</time></trkpt><trkpt lat="43.77099725625019" lon="10.934139930920091"><ele>74.0</ele><time>2026-05-01T16:47:15.999Z</time></trkpt><trkpt lat="43.7710696873646" lon="10.934154448245746"><ele>74.0</ele><time>2026-05-01T16:47:18.999Z</time></trkpt><trkpt lat="43.77114673088965" lon="10.934167039221206"><ele>74.0</ele><time>2026-05-01T16:47:21.999Z</time></trkpt><trkpt lat="43.77122538937706" lon="10.934195133998697"><ele>74.0</ele><time>2026-05-01T16:47:24.999Z</time></trkpt><trkpt lat="43.771297824121646" lon="10.934222427728425"><ele>72.0</ele><time>2026-05-01T16:47:27.999Z</time></trkpt><trkpt lat="43.77136729969737" lon="10.934242209564522"><ele>70.0</ele><time>2026-05-01T16:47:30.999Z</time></trkpt><trkpt lat="43.77143586088022" lon="10.934270671937556"><ele>68.0</ele><time>2026-05-01T16:47:33.999Z</time></trkpt><trkpt lat="43.7715138294943" lon="10.934307567940682"><ele>66.0</ele><time>2026-05-01T16:47:36.999Z</time></trkpt><trkpt lat="43.77159122975807" lon="10.934336828654743"><ele>64.0</ele><time>2026-05-01T16:47:39.999Z</time></trkpt><trkpt lat="43.77167438718214" lon="10.93434656182487"><ele>62.0</ele><time>2026-05-01T16:47:42.999Z</time></trkpt><trkpt lat="43.77174810767746" lon="10.934386752316883"><ele>62.00000000000001</ele><time>2026-05-01T16:47:45.999Z</time></trkpt><trkpt lat="43.77182960360693" lon="10.934415741152092"><ele>62.0</ele><time>2026-05-01T16:47:48.999Z</time></trkpt><trkpt lat="43.7719103625148" lon="10.93442991873233"><ele>62.0</ele><time>2026-05-01T16:47:51.999Z</time></trkpt><trkpt lat="43.77199116211916" lon="10.934445972609733"><ele>62.0</ele><time>2026-05-01T16:47:54.999Z</time></trkpt><trkpt lat="43.772067735811284" lon="10.93447467144153"><ele>62.00000000000001</ele><time>2026-05-01T16:47:57.999Z</time></trkpt><trkpt lat="43.7721459828307" lon="10.934483262700912"><ele>62.0</ele><time>2026-05-01T16:48:00.999Z</time></trkpt><trkpt lat="43.772221223066886" lon="10.934504721968242"><ele>61.16666666666667</ele><time>2026-05-01T16:48:03.999Z</time></trkpt><trkpt lat="43.77228807131648" lon="10.934539381751362"><ele>60.333333333333336</ele><time>2026-05-01T16:48:06.999Z</time></trkpt><trkpt lat="43.77235733330316" lon="10.934542090684348"><ele>59.5</ele><time>2026-05-01T16:48:09.999Z</time></trkpt><trkpt lat="43.77242874882532" lon="10.934582418730074"><ele>58.66666666666667</ele><time>2026-05-01T16:48:12.999Z</time></trkpt><trkpt lat="43.77250408014371" lon="10.934613067681957"><ele>57.833333333333336</ele><time>2026-05-01T16:48:15.999Z</time></trkpt><trkpt lat="43.77258241464754" lon="10.934641259688844"><ele>57.0</ele><time>2026-05-01T16:48:18.999Z</time></trkpt><trkpt lat="43.77265761305069" lon="10.934666207144215"><ele>55.857142857142854</ele><time>2026-05-01T16:48:21.999Z</time></trkpt><trkpt lat="43.77272521004171" lon="10.934691541364854"><ele>54.71428571428571</ele><time>2026-05-01T16:48:24.999Z</time></trkpt><trkpt lat="43.7727985424969" lon="10.934712665095482"><ele>53.57142857142857</ele><time>2026-05-01T16:48:27.999Z</time></trkpt><trkpt lat="43.7728759617868" lon="10.9347286516224"><ele>52.42857142857143</ele><time>2026-05-01T16:48:30.999Z</time></trkpt><trkpt lat="43.77294739865003" lon="10.93474780615829"><ele>51.285714285714285</ele><time>2026-05-01T16:48:33.998Z</time></trkpt><trkpt lat="43.773022469090854" lon="10.934778307980954"><ele>50.14285714285714</ele><time>2026-05-01T16:48:36.998Z</time></trkpt><trkpt lat="43.773085151102876" lon="10.93480880381396"><ele>49.0</ele><time>2026-05-01T16:48:39.998Z</time></trkpt><trkpt lat="43.773163541368596" lon="10.934826298607103"><ele>49.0</ele><time>2026-05-01T16:48:42.998Z</time></trkpt><trkpt lat="43.77323290842646" lon="10.934843231190287"><ele>49.0</ele><time>2026-05-01T16:48:45.998Z</time></trkpt><trkpt lat="43.77330592042877" lon="10.93487858730354"><ele>49.0</ele><time>2026-05-01T16:48:48.998Z</time></trkpt><trkpt lat="43.773375092250795" lon="10.934881853536332"><ele>49.0</ele><time>2026-05-01T16:48:51.998Z</time></trkpt><trkpt lat="43.77344499665411" lon="10.934919749110975"><ele>49.0</ele><time>2026-05-01T16:48:54.998Z</time></trkpt><trkpt lat="43.77351182221574" lon="10.93494012246218"><ele>49.0</ele><time>2026-05-01T16:48:57.999Z</time></trkpt><trkpt lat="43.77357802578483" lon="10.934968170145535"><ele>49.0</ele><time>2026-05-01T16:49:00.999Z</time></trkpt><trkpt lat="43.77364225484433" lon="10.935019515508003"><ele>49.0</ele><time>2026-05-01T16:49:04Z</time></trkpt><trkpt lat="43.77370951977091" lon="10.935034684765586"><ele>49.0</ele><time>2026-05-01T16:49:06.999Z</time></trkpt><trkpt lat="43.77377727142274" lon="10.935095107562502"><ele>49.0</ele><time>2026-05-01T16:49:10Z</time></trkpt><trkpt lat="43.773839321319514" lon="10.935143846039722"><ele>49.0</ele><time>2026-05-01T16:49:13Z</time></trkpt><trkpt lat="43.77389856830222" lon="10.935195338659886"><ele>49.0</ele><time>2026-05-01T16:49:16Z</time></trkpt><trkpt lat="43.77395125725018" lon="10.935263456464485"><ele>49.0</ele><time>2026-05-01T16:49:19Z</time></trkpt><trkpt lat="43.774006699200214" lon="10.935348471967666"><ele>49.0</ele><time>2026-05-01T16:49:22Z</time></trkpt><trkpt lat="43.77405029558443" lon="10.935414686267979"><ele>48.83333333333333</ele><time>2026-05-01T16:49:25Z</time></trkpt><trkpt lat="43.77412275034804" lon="10.935473448765595"><ele>48.666666666666664</ele><time>2026-05-01T16:49:29Z</time></trkpt><trkpt lat="43.7741945299321" lon="10.935550257092988"><ele>48.5</ele><time>2026-05-01T16:49:33Z</time></trkpt><trkpt lat="43.774259225818454" lon="10.935634377016378"><ele>48.33333333333333</ele><time>2026-05-01T16:49:36.999Z</time></trkpt><trkpt lat="43.77430612221355" lon="10.935711497842226"><ele>48.166666666666664</ele><time>2026-05-01T16:49:39.999Z</time></trkpt><trkpt lat="43.77435395487057" lon="10.93578456822562"><ele>48.0</ele><time>2026-05-01T16:49:42.999Z</time></trkpt><trkpt lat="43.77440081015821" lon="10.935860696632082"><ele>49.28571428571428</ele><time>2026-05-01T16:49:45.999Z</time></trkpt><trkpt lat="43.774455888333634" lon="10.935925866008564"><ele>50.57142857142857</ele><time>2026-05-01T16:49:48.999Z</time></trkpt><trkpt lat="43.77451327847248" lon="10.935983226583943"><ele>51.857142857142854</ele><time>2026-05-01T16:49:51.999Z</time></trkpt><trkpt lat="43.77457219586286" lon="10.93603657895981"><ele>53.14285714285714</ele><time>2026-05-01T16:49:54.999Z</time></trkpt><trkpt lat="43.774626331568015" lon="10.93609352176866"><ele>54.42857142857142</ele><time>2026-05-01T16:49:57.999Z</time></trkpt><trkpt lat="43.774659935289385" lon="10.936178229062094"><ele>55.71428571428571</ele><time>2026-05-01T16:50:00.999Z</time></trkpt><trkpt lat="43.77472666453172" lon="10.9361707302976"><ele>57.0</ele><time>2026-05-01T16:50:03.999Z</time></trkpt><trkpt lat="43.77476830240178" lon="10.93609738752773"><ele>57.0</ele><time>2026-05-01T16:50:06.999Z</time></trkpt><trkpt lat="43.77482036241857" lon="10.936018907020182"><ele>56.99999999999999</ele><time>2026-05-01T16:50:09.999Z</time></trkpt><trkpt lat="43.774864464890086" lon="10.93594826151457"><ele>57.0</ele><time>2026-05-01T16:50:12.999Z</time></trkpt><trkpt lat="43.77490703268116" lon="10.935881077056434"><ele>57.0</ele><time>2026-05-01T16:50:15.999Z</time></trkpt><trkpt lat="43.77495568257703" lon="10.935812077229503"><ele>56.99999999999999</ele><time>2026-05-01T16:50:18.999Z</time></trkpt><trkpt lat="43.77501236287812" lon="10.935754441076861"><ele>57.0</ele><time>2026-05-01T16:50:21.999Z</time></trkpt><trkpt lat="43.77506084691616" lon="10.935698746595403"><ele>57.0</ele><time>2026-05-01T16:50:24.999Z</time></trkpt><trkpt lat="43.77511817238403" lon="10.935659909339785"><ele>56.71428571428571</ele><time>2026-05-01T16:50:27.999Z</time></trkpt><trkpt lat="43.775192269162645" lon="10.9356174250832"><ele>56.42857142857142</ele><time>2026-05-01T16:50:31.999Z</time></trkpt><trkpt lat="43.77525200368194" lon="10.935584469795607"><ele>56.14285714285714</ele><time>2026-05-01T16:50:34.999Z</time></trkpt><trkpt lat="43.77532176454526" lon="10.935557152652786"><ele>55.857142857142854</ele><time>2026-05-01T16:50:37.999Z</time></trkpt><trkpt lat="43.77537613312037" lon="10.935503962817483"><ele>55.57142857142857</ele><time>2026-05-01T16:50:40.999Z</time></trkpt><trkpt lat="43.77543475478811" lon="10.935462640601436"><ele>55.28571428571428</ele><time>2026-05-01T16:50:43.999Z</time></trkpt><trkpt lat="43.775492281499936" lon="10.935402997989968"><ele>55.0</ele><time>2026-05-01T16:50:46.999Z</time></trkpt><trkpt lat="43.77555859439752" lon="10.93534473554417"><ele>54.99999999999999</ele><time>2026-05-01T16:50:50.999Z</time></trkpt><trkpt lat="43.7756290318414" lon="10.935298093577332"><ele>55.0</ele><time>2026-05-01T16:50:54.999Z</time></trkpt><trkpt lat="43.77569187518322" lon="10.935250075341957"><ele>55.0</ele><time>2026-05-01T16:50:58.999Z</time></trkpt><trkpt lat="43.77574780090525" lon="10.935185439090276"><ele>55.0</ele><time>2026-05-01T16:51:03Z</time></trkpt><trkpt lat="43.7758100507991" lon="10.9351476168488"><ele>55.0</ele><time>2026-05-01T16:51:07Z</time></trkpt><trkpt lat="43.77587709634586" lon="10.935133062541015"><ele>54.99999999999999</ele><time>2026-05-01T16:51:10.999Z</time></trkpt><trkpt lat="43.77594676613594" lon="10.93513095513289"><ele>55.0</ele><time>2026-05-01T16:51:14.999Z</time></trkpt><trkpt lat="43.776025272321995" lon="10.935167797319243"><ele>56.42857142857142</ele><time>2026-05-01T16:51:18.999Z</time></trkpt><trkpt lat="43.776081496842686" lon="10.935213106650687"><ele>57.85714285714286</ele><time>2026-05-01T16:51:22.999Z</time></trkpt><trkpt lat="43.77614038985975" lon="10.935278987762258"><ele>59.28571428571429</ele><time>2026-05-01T16:51:26.999Z</time></trkpt><trkpt lat="43.7761984385019" lon="10.935319882177094"><ele>60.714285714285715</ele><time>2026-05-01T16:51:30.999Z</time></trkpt><trkpt lat="43.77626123734983" lon="10.935327951889658"><ele>62.142857142857146</ele><time>2026-05-01T16:51:34.999Z</time></trkpt><trkpt lat="43.776327564725555" lon="10.93531015642016"><ele>63.57142857142858</ele><time>2026-05-01T16:51:39.999Z</time></trkpt><trkpt lat="43.77639701611726" lon="10.935292402370308"><ele>65.0</ele><time>2026-05-01T16:51:46.999Z</time></trkpt><trkpt lat="43.776458281884864" lon="10.935230680816709"><ele>65.00000000000001</ele><time>2026-05-01T16:51:51.999Z</time></trkpt><trkpt lat="43.776513340097665" lon="10.935173223869784"><ele>65.0</ele><time>2026-05-01T16:51:55.999Z</time></trkpt><trkpt lat="43.77657904526667" lon="10.935129375479649"><ele>65.0</ele><time>2026-05-01T16:52:00.999Z</time></trkpt><trkpt lat="43.776647450723694" lon="10.935087272485273"><ele>65.0</ele><time>2026-05-01T16:52:05.999Z</time></trkpt><trkpt lat="43.77670952952695" lon="10.935070106363424"><ele>65.0</ele><time>2026-05-01T16:52:09.999Z</time></trkpt><trkpt lat="43.77677313235129" lon="10.935014020687202"><ele>65.00000000000001</ele><time>2026-05-01T16:52:14.999Z</time></trkpt><trkpt lat="43.77684079049326" lon="10.934984753039313"><ele>65.0</ele><time>2026-05-01T16:52:18.999Z</time></trkpt><trkpt lat="43.77690539500743" lon="10.934934632359958"><ele>65.28571428571429</ele><time>2026-05-01T16:52:22.999Z</time></trkpt><trkpt lat="43.776972976803094" lon="10.934881006554392"><ele>65.57142857142857</ele><time>2026-05-01T16:52:26.999Z</time></trkpt><trkpt lat="43.7770318058922" lon="10.934804510299186"><ele>65.85714285714286</ele><time>2026-05-01T16:52:30.998Z</time></trkpt><trkpt lat="43.77707024939965" lon="10.934731131869151"><ele>66.14285714285714</ele><time>2026-05-01T16:52:33.998Z</time></trkpt><trkpt lat="43.77709890783059" lon="10.934639775132052"><ele>66.42857142857143</ele><time>2026-05-01T16:52:36.998Z</time></trkpt><trkpt lat="43.77714109216253" lon="10.934545007253568"><ele>66.71428571428572</ele><time>2026-05-01T16:52:40.998Z</time></trkpt><trkpt lat="43.777173514939506" lon="10.934460728125392"><ele>67.0</ele><time>2026-05-01T16:52:43.998Z</time></trkpt><trkpt lat="43.77720915153203" lon="10.934379571618459"><ele>67.0</ele><time>2026-05-01T16:52:46.998Z</time></trkpt><trkpt lat="43.77724099202997" lon="10.934287735625299"><ele>67.0</ele><time>2026-05-01T16:52:49.998Z</time></trkpt><trkpt lat="43.77727669834155" lon="10.934205843768702"><ele>67.0</ele><time>2026-05-01T16:52:52.998Z</time></trkpt><trkpt lat="43.7773086640637" lon="10.934123151453695"><ele>67.0</ele><time>2026-05-01T16:52:55.998Z</time></trkpt><trkpt lat="43.777354430357846" lon="10.934049474850873"><ele>67.0</ele><time>2026-05-01T16:52:58.998Z</time></trkpt><trkpt lat="43.77738616654525" lon="10.933961084952143"><ele>67.0</ele><time>2026-05-01T16:53:01.998Z</time></trkpt><trkpt lat="43.777420834161774" lon="10.933877096158099"><ele>67.0</ele><time>2026-05-01T16:53:04.998Z</time></trkpt><trkpt lat="43.777449371587466" lon="10.933776732920695"><ele>66.0</ele><time>2026-05-01T16:53:07.998Z</time></trkpt><trkpt lat="43.77744920194489" lon="10.933670066117271"><ele>65.0</ele><time>2026-05-01T16:53:11Z</time></trkpt><trkpt lat="43.77741272124952" lon="10.933584896359054"><ele>64.0</ele><time>2026-05-01T16:53:14Z</time></trkpt><trkpt lat="43.77739014922772" lon="10.933493545591524"><ele>63.0</ele><time>2026-05-01T16:53:17Z</time></trkpt><trkpt lat="43.77736036181821" lon="10.933411100212055"><ele>62.0</ele><time>2026-05-01T16:53:20Z</time></trkpt><trkpt lat="43.77732829600395" lon="10.933320909781665"><ele>61.0</ele><time>2026-05-01T16:53:23Z</time></trkpt><trkpt lat="43.77730051084752" lon="10.933234754636294"><ele>60.0</ele><time>2026-05-01T16:53:26Z</time></trkpt><trkpt lat="43.777282309222876" lon="10.933136508464687"><ele>59.57142857142857</ele><time>2026-05-01T16:53:29Z</time></trkpt><trkpt lat="43.77726069327439" lon="10.93304759333331"><ele>59.14285714285714</ele><time>2026-05-01T16:53:32Z</time></trkpt><trkpt lat="43.77724210423429" lon="10.932956316128973"><ele>58.71428571428571</ele><time>2026-05-01T16:53:35Z</time></trkpt><trkpt lat="43.77721906419666" lon="10.932865088983059"><ele>58.285714285714285</ele><time>2026-05-01T16:53:38Z</time></trkpt><trkpt lat="43.77719103785771" lon="10.932775506948166"><ele>57.85714285714285</ele><time>2026-05-01T16:53:41Z</time></trkpt><trkpt lat="43.77715178255641" lon="10.932681892162156"><ele>57.42857142857142</ele><time>2026-05-01T16:53:44Z</time></trkpt><trkpt lat="43.77712269123383" lon="10.932596377192684"><ele>57.0</ele><time>2026-05-01T16:53:47Z</time></trkpt><trkpt lat="43.77708835963781" lon="10.932489220633464"><ele>56.666666666666664</ele><time>2026-05-01T16:53:50Z</time></trkpt><trkpt lat="43.77706280000038" lon="10.93239821372507"><ele>56.33333333333333</ele><time>2026-05-01T16:53:53Z</time></trkpt><trkpt lat="43.777039565700825" lon="10.932306590890605"><ele>56.0</ele><time>2026-05-01T16:53:56Z</time></trkpt><trkpt lat="43.777020684497636" lon="10.932192990328339"><ele>55.666666666666664</ele><time>2026-05-01T16:53:59Z</time></trkpt><trkpt lat="43.77698247387735" lon="10.932096252095903"><ele>55.33333333333333</ele><time>2026-05-01T16:54:02Z</time></trkpt><trkpt lat="43.77695519870046" lon="10.931989562643702"><ele>55.0</ele><time>2026-05-01T16:54:05Z</time></trkpt><trkpt lat="43.776927019054654" lon="10.931901945934445"><ele>54.99999999999999</ele><time>2026-05-01T16:54:08Z</time></trkpt><trkpt lat="43.77690072750261" lon="10.931798156691423"><ele>55.0</ele><time>2026-05-01T16:54:11Z</time></trkpt><trkpt lat="43.7768676231698" lon="10.93170438315877"><ele>55.0</ele><time>2026-05-01T16:54:14Z</time></trkpt><trkpt lat="43.77684178391483" lon="10.93159631524977"><ele>55.0</ele><time>2026-05-01T16:54:17Z</time></trkpt><trkpt lat="43.776803160258225" lon="10.931488848941221"><ele>54.99999999999999</ele><time>2026-05-01T16:54:20Z</time></trkpt><trkpt lat="43.77678762601011" lon="10.93137573641819"><ele>55.0</ele><time>2026-05-01T16:54:23Z</time></trkpt><trkpt lat="43.77674365803345" lon="10.931280477337646"><ele>54.666666666666664</ele><time>2026-05-01T16:54:26Z</time></trkpt><trkpt lat="43.77671139591176" lon="10.93117942449979"><ele>54.33333333333333</ele><time>2026-05-01T16:54:29Z</time></trkpt><trkpt lat="43.776690499579" lon="10.931093955254934"><ele>54.0</ele><time>2026-05-01T16:54:31Z</time></trkpt><trkpt lat="43.77666129920243" lon="10.930996374662366"><ele>53.66666666666667</ele><time>2026-05-01T16:54:34Z</time></trkpt><trkpt lat="43.7766271317875" lon="10.930899967165383"><ele>53.333333333333336</ele><time>2026-05-01T16:54:37Z</time></trkpt><trkpt lat="43.776593174956794" lon="10.93080168176155"><ele>53.0</ele><time>2026-05-01T16:54:40Z</time></trkpt><trkpt lat="43.77656544468056" lon="10.930696098858908"><ele>53.00000000000001</ele><time>2026-05-01T16:54:43Z</time></trkpt><trkpt lat="43.77654688396291" lon="10.930590027697937"><ele>53.0</ele><time>2026-05-01T16:54:46Z</time></trkpt><trkpt lat="43.77655291948612" lon="10.930484445430704"><ele>53.0</ele><time>2026-05-01T16:54:49Z</time></trkpt><trkpt lat="43.776567334622655" lon="10.930378523171962"><ele>53.0</ele><time>2026-05-01T16:54:52Z</time></trkpt><trkpt lat="43.77654886026353" lon="10.930271899478052"><ele>53.00000000000001</ele><time>2026-05-01T16:54:55Z</time></trkpt><trkpt lat="43.776532523803226" lon="10.930173298886814"><ele>53.0</ele><time>2026-05-01T16:54:57.999Z</time></trkpt><trkpt lat="43.776521812777986" lon="10.930081391534983"><ele>52.42857142857143</ele><time>2026-05-01T16:55:00.999Z</time></trkpt><trkpt lat="43.77650057361743" lon="10.929989226935836"><ele>51.857142857142854</ele><time>2026-05-01T16:55:03.999Z</time></trkpt><trkpt lat="43.776489184410146" lon="10.92989736006586"><ele>51.285714285714285</ele><time>2026-05-01T16:55:06.999Z</time></trkpt><trkpt lat="43.77645419058641" lon="10.929788277979137"><ele>50.714285714285715</ele><time>2026-05-01T16:55:10.999Z</time></trkpt><trkpt lat="43.776438397746006" lon="10.929696606966159"><ele>50.14285714285714</ele><time>2026-05-01T16:55:13.999Z</time></trkpt><trkpt lat="43.776416221648724" lon="10.929605620781437"><ele>49.57142857142857</ele><time>2026-05-01T16:55:17.001Z</time></trkpt><trkpt lat="43.776407400410235" lon="10.929510379813914"><ele>49.0</ele><time>2026-05-01T16:55:20Z</time></trkpt><trkpt lat="43.77639504656684" lon="10.929419488834803"><ele>48.99999999999999</ele><time>2026-05-01T16:55:23Z</time></trkpt><trkpt lat="43.77638722222332" lon="10.929300710418202"><ele>49.0</ele><time>2026-05-01T16:55:27Z</time></trkpt><trkpt lat="43.776379830392194" lon="10.929185591839474"><ele>49.0</ele><time>2026-05-01T16:55:31Z</time></trkpt><trkpt lat="43.77637217540061" lon="10.929093717514467"><ele>49.0</ele><time>2026-05-01T16:55:34Z</time></trkpt><trkpt lat="43.77637211327039" lon="10.928976920066633"><ele>48.99999999999999</ele><time>2026-05-01T16:55:38Z</time></trkpt><trkpt lat="43.77639299974122" lon="10.928880412660547"><ele>49.0</ele><time>2026-05-01T16:55:41Z</time></trkpt><trkpt lat="43.776410831533006" lon="10.928794845566202"><ele>48.49999999999999</ele><time>2026-05-01T16:55:44Z</time></trkpt><trkpt lat="43.77640941252433" lon="10.928694296631466"><ele>48.0</ele><time>2026-05-01T16:55:47Z</time></trkpt><trkpt lat="43.776398467696175" lon="10.92859979158616"><ele>47.5</ele><time>2026-05-01T16:55:50Z</time></trkpt><trkpt lat="43.77639781175783" lon="10.92850066127043"><ele>47.0</ele><time>2026-05-01T16:55:53Z</time></trkpt><trkpt lat="43.77638416511242" lon="10.928386400388604"><ele>46.5</ele><time>2026-05-01T16:55:56Z</time></trkpt><trkpt lat="43.7763727495294" lon="10.928276107329097"><ele>46.0</ele><time>2026-05-01T16:55:59Z</time></trkpt><trkpt lat="43.776346082339515" lon="10.928159681718906"><ele>45.333333333333336</ele><time>2026-05-01T16:56:02Z</time></trkpt><trkpt lat="43.77632755956275" lon="10.928053249783243"><ele>44.66666666666667</ele><time>2026-05-01T16:56:05Z</time></trkpt><trkpt lat="43.77630767406119" lon="10.92795484603485"><ele>44.0</ele><time>2026-05-01T16:56:08Z</time></trkpt><trkpt lat="43.776279624296514" lon="10.927848929802897"><ele>43.333333333333336</ele><time>2026-05-01T16:56:11Z</time></trkpt><trkpt lat="43.77625091717184" lon="10.927750170826776"><ele>42.666666666666664</ele><time>2026-05-01T16:56:14Z</time></trkpt><trkpt lat="43.77618372173396" lon="10.927686030581317"><ele>42.0</ele><time>2026-05-01T16:56:17Z</time></trkpt><trkpt lat="43.77612056457533" lon="10.927677198009095"><ele>42.0</ele><time>2026-05-01T16:56:20Z</time></trkpt><trkpt lat="43.77605798001155" lon="10.927638982797065"><ele>42.0</ele><time>2026-05-01T16:56:23Z</time></trkpt><trkpt lat="43.776046572405384" lon="10.927550410013026"><ele>42.0</ele><time>2026-05-01T16:56:25Z</time></trkpt><trkpt lat="43.7760218501527" lon="10.927437682718553"><ele>42.0</ele><time>2026-05-01T16:56:29Z</time></trkpt><trkpt lat="43.77599885222447" lon="10.927350500902287"><ele>42.0</ele><time>2026-05-01T16:56:32Z</time></trkpt><trkpt lat="43.77598996941675" lon="10.927262600829724"><ele>42.0</ele><time>2026-05-01T16:56:35Z</time></trkpt><trkpt lat="43.77597801303233" lon="10.927156392683562"><ele>42.0</ele><time>2026-05-01T16:56:38Z</time></trkpt><trkpt lat="43.775969104988874" lon="10.927061012371569"><ele>41.857142857142854</ele><time>2026-05-01T16:56:41Z</time></trkpt><trkpt lat="43.77595595380787" lon="10.926954131630218"><ele>41.714285714285715</ele><time>2026-05-01T16:56:45Z</time></trkpt><trkpt lat="43.775949381190124" lon="10.926866626367119"><ele>41.57142857142857</ele><time>2026-05-01T16:56:48Z</time></trkpt><trkpt lat="43.77601748239245" lon="10.92682359252583"><ele>41.42857142857143</ele><time>2026-05-01T16:56:51Z</time></trkpt><trkpt lat="43.77608834417405" lon="10.926813735802634"><ele>41.285714285714285</ele><time>2026-05-01T16:56:54Z</time></trkpt><trkpt lat="43.776139583579905" lon="10.926747065470979"><ele>41.14285714285714</ele><time>2026-05-01T16:56:57Z</time></trkpt><trkpt lat="43.77622314742951" lon="10.92673619725013"><ele>41.0</ele><time>2026-05-01T16:57:01Z</time></trkpt><trkpt lat="43.77628814312454" lon="10.92674177987199"><ele>40.857142857142854</ele><time>2026-05-01T16:57:03.999Z</time></trkpt><trkpt lat="43.77635344884006" lon="10.926747856262084"><ele>40.714285714285715</ele><time>2026-05-01T16:57:06.999Z</time></trkpt><trkpt lat="43.776416691739925" lon="10.926768212867028"><ele>40.57142857142857</ele><time>2026-05-01T16:57:09.999Z</time></trkpt><trkpt lat="43.77648544691195" lon="10.926779454976375"><ele>40.42857142857143</ele><time>2026-05-01T16:57:12.999Z</time></trkpt><trkpt lat="43.77655022372523" lon="10.926792663230051"><ele>40.285714285714285</ele><time>2026-05-01T16:57:15.999Z</time></trkpt><trkpt lat="43.77660549866694" lon="10.926835047698681"><ele>40.14285714285714</ele><time>2026-05-01T16:57:18.999Z</time></trkpt><trkpt lat="43.77666705051377" lon="10.926858409015992"><ele>40.0</ele><time>2026-05-01T16:57:22.001Z</time></trkpt><trkpt lat="43.77674949861384" lon="10.926884318885179"><ele>40.0</ele><time>2026-05-01T16:57:26.001Z</time></trkpt><trkpt lat="43.77681253759366" lon="10.926906300146298"><ele>40.0</ele><time>2026-05-01T16:57:29Z</time></trkpt><trkpt lat="43.776895124389206" lon="10.926925227476403"><ele>40.0</ele><time>2026-05-01T16:57:33.001Z</time></trkpt><trkpt lat="43.776978509923765" lon="10.92693224023933"><ele>40.0</ele><time>2026-05-01T16:57:37.001Z</time></trkpt><trkpt lat="43.77703896928797" lon="10.926961540947929"><ele>40.0</ele><time>2026-05-01T16:57:40.001Z</time></trkpt><trkpt lat="43.777118865149646" lon="10.926994663405864"><ele>40.0</ele><time>2026-05-01T16:57:44.001Z</time></trkpt><trkpt lat="43.777187689174426" lon="10.92702239067658"><ele>40.285714285714285</ele><time>2026-05-01T16:57:47.001Z</time></trkpt><trkpt lat="43.77725181999697" lon="10.927036092217119"><ele>40.57142857142857</ele><time>2026-05-01T16:57:50.001Z</time></trkpt><trkpt lat="43.777316764781375" lon="10.927049833092687"><ele>40.85714285714286</ele><time>2026-05-01T16:57:53.001Z</time></trkpt><trkpt lat="43.77739768134442" lon="10.927075006020358"><ele>41.14285714285714</ele><time>2026-05-01T16:57:57.001Z</time></trkpt><trkpt lat="43.77745776530163" lon="10.92710722302639"><ele>41.42857142857143</ele><time>2026-05-01T16:58:00.001Z</time></trkpt><trkpt lat="43.777524969454" lon="10.92711775706502"><ele>41.714285714285715</ele><time>2026-05-01T16:58:03.001Z</time></trkpt><trkpt lat="43.777594583045015" lon="10.927140344112889"><ele>42.0</ele><time>2026-05-01T16:58:06.001Z</time></trkpt><trkpt lat="43.77766661115247" lon="10.927142465259495"><ele>42.0</ele><time>2026-05-01T16:58:09.001Z</time></trkpt><trkpt lat="43.777735934188584" lon="10.927170608127327"><ele>42.0</ele><time>2026-05-01T16:58:12.001Z</time></trkpt><trkpt lat="43.77780587811594" lon="10.927190814511821"><ele>42.0</ele><time>2026-05-01T16:58:15.001Z</time></trkpt><trkpt lat="43.77787181749577" lon="10.927202090184064"><ele>42.0</ele><time>2026-05-01T16:58:18.001Z</time></trkpt><trkpt lat="43.777943786795035" lon="10.927218720361498"><ele>42.0</ele><time>2026-05-01T16:58:21Z</time></trkpt><trkpt lat="43.7780185923769" lon="10.927223394891156"><ele>42.0</ele><time>2026-05-01T16:58:24Z</time></trkpt><trkpt lat="43.77809152172797" lon="10.92722910988917"><ele>42.0</ele><time>2026-05-01T16:58:27Z</time></trkpt><trkpt lat="43.778162309564316" lon="10.927238148557237"><ele>42.0</ele><time>2026-05-01T16:58:30Z</time></trkpt><trkpt lat="43.77822895586825" lon="10.927266246584773"><ele>42.0</ele><time>2026-05-01T16:58:33Z</time></trkpt><trkpt lat="43.77829483768883" lon="10.927294191160621"><ele>42.0</ele><time>2026-05-01T16:58:36Z</time></trkpt><trkpt lat="43.778379156334" lon="10.927326201528146"><ele>42.0</ele><time>2026-05-01T16:58:40Z</time></trkpt><trkpt lat="43.778462852094414" lon="10.927354493883314"><ele>42.0</ele><time>2026-05-01T16:58:44Z</time></trkpt><trkpt lat="43.778548314826956" lon="10.927357986790296"><ele>42.0</ele><time>2026-05-01T16:58:48Z</time></trkpt><trkpt lat="43.778611671817345" lon="10.927378246698867"><ele>42.142857142857146</ele><time>2026-05-01T16:58:51Z</time></trkpt><trkpt lat="43.77867866046139" lon="10.927407543347028"><ele>42.285714285714285</ele><time>2026-05-01T16:58:54Z</time></trkpt><trkpt lat="43.77874082667486" lon="10.927437918271186"><ele>42.42857142857143</ele><time>2026-05-01T16:58:57Z</time></trkpt><trkpt lat="43.77881241535944" lon="10.927458770584296"><ele>42.57142857142857</ele><time>2026-05-01T16:59:00Z</time></trkpt><trkpt lat="43.778871460943606" lon="10.927510205297347"><ele>42.714285714285715</ele><time>2026-05-01T16:59:03Z</time></trkpt><trkpt lat="43.77893163729494" lon="10.927550600791731"><ele>42.85714285714286</ele><time>2026-05-01T16:59:06Z</time></trkpt><trkpt lat="43.77900315382679" lon="10.9275810980889"><ele>43.0</ele><time>2026-05-01T16:59:09Z</time></trkpt><trkpt lat="43.779057008744374" lon="10.92762848889945"><ele>43.142857142857146</ele><time>2026-05-01T16:59:12Z</time></trkpt><trkpt lat="43.77911607880992" lon="10.927686821384162"><ele>43.285714285714285</ele><time>2026-05-01T16:59:15Z</time></trkpt><trkpt lat="43.779180957575775" lon="10.92772254598863"><ele>43.42857142857143</ele><time>2026-05-01T16:59:18Z</time></trkpt><trkpt lat="43.77924014726183" lon="10.927759317771839"><ele>43.57142857142857</ele><time>2026-05-01T16:59:21Z</time></trkpt><trkpt lat="43.77930219016027" lon="10.927805312117663"><ele>43.714285714285715</ele><time>2026-05-01T16:59:24Z</time></trkpt><trkpt lat="43.77935956902942" lon="10.92784165418327"><ele>43.85714285714286</ele><time>2026-05-01T16:59:27.001Z</time></trkpt><trkpt lat="43.77944194054977" lon="10.92787689618458"><ele>44.0</ele><time>2026-05-01T16:59:31.002Z</time></trkpt><trkpt lat="43.77951297299112" lon="10.927907507519807"><ele>44.0</ele><time>2026-05-01T16:59:34.001Z</time></trkpt><trkpt lat="43.77957690110678" lon="10.92795337636199"><ele>44.0</ele><time>2026-05-01T16:59:37.002Z</time></trkpt><trkpt lat="43.77963160978522" lon="10.928010396050198"><ele>44.0</ele><time>2026-05-01T16:59:40.001Z</time></trkpt><trkpt lat="43.77969647409771" lon="10.928045643036587"><ele>44.0</ele><time>2026-05-01T16:59:43.001Z</time></trkpt><trkpt lat="43.77975615219657" lon="10.928106711783785"><ele>44.0</ele><time>2026-05-01T16:59:46.001Z</time></trkpt><trkpt lat="43.77981515161391" lon="10.928148539552728"><ele>44.0</ele><time>2026-05-01T16:59:49.001Z</time></trkpt><trkpt lat="43.779872675832856" lon="10.928191832900055"><ele>44.0</ele><time>2026-05-01T16:59:52.001Z</time></trkpt><trkpt lat="43.77992808361671" lon="10.928245770141904"><ele>44.0</ele><time>2026-05-01T16:59:55.001Z</time></trkpt><trkpt lat="43.77999645536159" lon="10.928310353373137"><ele>44.0</ele><time>2026-05-01T16:59:59.001Z</time></trkpt><trkpt lat="43.780052042196445" lon="10.928352624141084"><ele>44.0</ele><time>2026-05-01T17:00:02.001Z</time></trkpt><trkpt lat="43.78010815601781" lon="10.928393548877786"><ele>44.0</ele><time>2026-05-01T17:00:05.001Z</time></trkpt><trkpt lat="43.78016166187809" lon="10.928441196058754"><ele>44.0</ele><time>2026-05-01T17:00:08.001Z</time></trkpt><trkpt lat="43.78021637831077" lon="10.928498620999267"><ele>44.0</ele><time>2026-05-01T17:00:11.001Z</time></trkpt><trkpt lat="43.7802847973802" lon="10.928565858489783"><ele>44.0</ele><time>2026-05-01T17:00:15.001Z</time></trkpt><trkpt lat="43.7803339802328" lon="10.928621646362144"><ele>44.142857142857146</ele><time>2026-05-01T17:00:18.001Z</time></trkpt><trkpt lat="43.78038913063794" lon="10.92867416607616"><ele>44.285714285714285</ele><time>2026-05-01T17:00:21.001Z</time></trkpt><trkpt lat="43.78044330416204" lon="10.928727892479206"><ele>44.42857142857143</ele><time>2026-05-01T17:00:24.001Z</time></trkpt><trkpt lat="43.780502644774245" lon="10.928765216652547"><ele>44.57142857142857</ele><time>2026-05-01T17:00:27.001Z</time></trkpt><trkpt lat="43.78056459083616" lon="10.928810268504035"><ele>44.714285714285715</ele><time>2026-05-01T17:00:30.001Z</time></trkpt><trkpt lat="43.780590736251106" lon="10.928902875057961"><ele>44.857142857142854</ele><time>2026-05-01T17:00:34.001Z</time></trkpt><trkpt lat="43.78065422072221" lon="10.928926735699"><ele>45.0</ele><time>2026-05-01T17:00:37.001Z</time></trkpt><trkpt lat="43.7807380799469" lon="10.928961548658956"><ele>45.0</ele><time>2026-05-01T17:00:41.001Z</time></trkpt><trkpt lat="43.78080581986083" lon="10.928953400718497"><ele>45.0</ele><time>2026-05-01T17:00:44.001Z</time></trkpt><trkpt lat="43.78088701067851" lon="10.92894551596612"><ele>45.0</ele><time>2026-05-01T17:00:48.001Z</time></trkpt><trkpt lat="43.78096694991644" lon="10.928946197161785"><ele>45.0</ele><time>2026-05-01T17:00:52.001Z</time></trkpt><trkpt lat="43.781030141911636" lon="10.928960818329328"><ele>45.0</ele><time>2026-05-01T17:00:55.001Z</time></trkpt><trkpt lat="43.78111085996401" lon="10.92896756139328"><ele>45.0</ele><time>2026-05-01T17:00:59Z</time></trkpt><trkpt lat="43.781190287884414" lon="10.928976968809474"><ele>45.14285714285714</ele><time>2026-05-01T17:01:03Z</time></trkpt><trkpt lat="43.78127363940708" lon="10.928994875949927"><ele>45.28571428571429</ele><time>2026-05-01T17:01:07Z</time></trkpt><trkpt lat="43.78133869347449" lon="10.929041412682338"><ele>45.42857142857143</ele><time>2026-05-01T17:01:10Z</time></trkpt><trkpt lat="43.7813948798847" lon="10.92908530640921"><ele>45.57142857142857</ele><time>2026-05-01T17:01:13Z</time></trkpt><trkpt lat="43.78144421681619" lon="10.92914854895687"><ele>45.71428571428571</ele><time>2026-05-01T17:01:16Z</time></trkpt><trkpt lat="43.78148141285602" lon="10.929220865050908"><ele>45.85714285714286</ele><time>2026-05-01T17:01:19Z</time></trkpt><trkpt lat="43.78151239018366" lon="10.929296819805971"><ele>46.0</ele><time>2026-05-01T17:01:22Z</time></trkpt><trkpt lat="43.78153950515258" lon="10.929376289107486"><ele>45.85714285714286</ele><time>2026-05-01T17:01:25Z</time></trkpt><trkpt lat="43.78154346597124" lon="10.929468391155513"><ele>45.71428571428571</ele><time>2026-05-01T17:01:28Z</time></trkpt><trkpt lat="43.781581045711306" lon="10.929578104794693"><ele>45.57142857142857</ele><time>2026-05-01T17:01:32Z</time></trkpt><trkpt lat="43.78163342239478" lon="10.929639670514927"><ele>45.42857142857143</ele><time>2026-05-01T17:01:35.001Z</time></trkpt><trkpt lat="43.78168810055362" lon="10.929694510983644"><ele>45.28571428571429</ele><time>2026-05-01T17:01:38.002Z</time></trkpt><trkpt lat="43.78174171426937" lon="10.929743082364384"><ele>45.14285714285714</ele><time>2026-05-01T17:01:41.002Z</time></trkpt><trkpt lat="43.7817957741352" lon="10.929799679687836"><ele>45.0</ele><time>2026-05-01T17:01:44.002Z</time></trkpt><trkpt lat="43.78185364576228" lon="10.929852495541247"><ele>45.0</ele><time>2026-05-01T17:01:47.002Z</time></trkpt><trkpt lat="43.781910578034044" lon="10.929895320309408"><ele>45.0</ele><time>2026-05-01T17:01:50.002Z</time></trkpt><trkpt lat="43.78195287465958" lon="10.929979897329002"><ele>45.0</ele><time>2026-05-01T17:01:53.001Z</time></trkpt><trkpt lat="43.78198285317861" lon="10.930064247863001"><ele>45.0</ele><time>2026-05-01T17:01:56.001Z</time></trkpt><trkpt lat="43.782016523940676" lon="10.930144712960637"><ele>45.0</ele><time>2026-05-01T17:01:59.001Z</time></trkpt><trkpt lat="43.782047451993655" lon="10.93024491417052"><ele>45.0</ele><time>2026-05-01T17:02:03.001Z</time></trkpt><trkpt lat="43.78206897693238" lon="10.930332189600279"><ele>45.0</ele><time>2026-05-01T17:02:06.001Z</time></trkpt><trkpt lat="43.7820874985341" lon="10.930419473381866"><ele>45.0</ele><time>2026-05-01T17:02:09.001Z</time></trkpt><trkpt lat="43.78210449800842" lon="10.930536606652995"><ele>45.0</ele><time>2026-05-01T17:02:13.001Z</time></trkpt><trkpt lat="43.78210893534285" lon="10.93065304040946"><ele>45.0</ele><time>2026-05-01T17:02:17.001Z</time></trkpt><trkpt lat="43.782129787483214" lon="10.930741560525918"><ele>45.0</ele><time>2026-05-01T17:02:20.001Z</time></trkpt><trkpt lat="43.782160173507464" lon="10.930826905180776"><ele>45.0</ele><time>2026-05-01T17:02:23.001Z</time></trkpt><trkpt lat="43.78220363458434" lon="10.93090310225693"><ele>45.0</ele><time>2026-05-01T17:02:26.001Z</time></trkpt><trkpt lat="43.782240672283834" lon="10.930978469681333"><ele>45.0</ele><time>2026-05-01T17:02:29.001Z</time></trkpt><trkpt lat="43.782285631799255" lon="10.931047432635673"><ele>45.42857142857142</ele><time>2026-05-01T17:02:32.001Z</time></trkpt><trkpt lat="43.782342402903424" lon="10.93108820451357"><ele>45.85714285714286</ele><time>2026-05-01T17:02:35.001Z</time></trkpt><trkpt lat="43.78240449507695" lon="10.931116891147537"><ele>46.285714285714285</ele><time>2026-05-01T17:02:38.001Z</time></trkpt><trkpt lat="43.78247993790882" lon="10.931161069909901"><ele>46.71428571428571</ele><time>2026-05-01T17:02:42.001Z</time></trkpt><trkpt lat="43.78253652268846" lon="10.931209059775716"><ele>47.14285714285714</ele><time>2026-05-01T17:02:45.001Z</time></trkpt><trkpt lat="43.782579579502155" lon="10.931291661908995"><ele>47.57142857142857</ele><time>2026-05-01T17:02:48.001Z</time></trkpt><trkpt lat="43.7826262371434" lon="10.93135712936489"><ele>48.0</ele><time>2026-05-01T17:02:51.001Z</time></trkpt><trkpt lat="43.78265497499172" lon="10.931446748807337"><ele>47.99999999999999</ele><time>2026-05-01T17:02:54.001Z</time></trkpt><trkpt lat="43.782687537089146" lon="10.931526691830651"><ele>48.0</ele><time>2026-05-01T17:02:57.001Z</time></trkpt><trkpt lat="43.78272667433474" lon="10.931600108564766"><ele>48.0</ele><time>2026-05-01T17:03:00.001Z</time></trkpt><trkpt lat="43.78279033099378" lon="10.931648417265343"><ele>48.0</ele><time>2026-05-01T17:03:03.001Z</time></trkpt><trkpt lat="43.78284603249158" lon="10.931716360388513"><ele>48.0</ele><time>2026-05-01T17:03:06.001Z</time></trkpt><trkpt lat="43.78290837511028" lon="10.931768527524154"><ele>47.99999999999999</ele><time>2026-05-01T17:03:09.001Z</time></trkpt><trkpt lat="43.782980171207214" lon="10.931831636187997"><ele>48.0</ele><time>2026-05-01T17:03:13.001Z</time></trkpt><trkpt lat="43.7830357750142" lon="10.93189070523823"><ele>48.666666666666664</ele><time>2026-05-01T17:03:16.001Z</time></trkpt><trkpt lat="43.78312162487135" lon="10.931934599847374"><ele>49.33333333333333</ele><time>2026-05-01T17:03:20.001Z</time></trkpt><trkpt lat="43.78318874213575" lon="10.932010398552865"><ele>50.0</ele><time>2026-05-01T17:03:24.001Z</time></trkpt><trkpt lat="43.78323190164045" lon="10.932077755876058"><ele>50.666666666666664</ele><time>2026-05-01T17:03:27.001Z</time></trkpt><trkpt lat="43.78328524959812" lon="10.93212865068056"><ele>51.33333333333333</ele><time>2026-05-01T17:03:30Z</time></trkpt><trkpt lat="43.78334193872685" lon="10.932192916297122"><ele>52.0</ele><time>2026-05-01T17:03:33Z</time></trkpt><trkpt lat="43.783397054987496" lon="10.932250854860493"><ele>52.0</ele><time>2026-05-01T17:03:36Z</time></trkpt><trkpt lat="43.78346541010318" lon="10.932284867216941"><ele>52.0</ele><time>2026-05-01T17:03:39.003Z</time></trkpt><trkpt lat="43.783531083742965" lon="10.932317237700738"><ele>52.0</ele><time>2026-05-01T17:03:42.002Z</time></trkpt><trkpt lat="43.783595160394164" lon="10.932328821903749"><ele>52.0</ele><time>2026-05-01T17:03:45.002Z</time></trkpt><trkpt lat="43.78366418708918" lon="10.932339227969402"><ele>52.0</ele><time>2026-05-01T17:03:48.002Z</time></trkpt><trkpt lat="43.78372970650668" lon="10.93233839769534"><ele>52.0</ele><time>2026-05-01T17:03:51.003Z</time></trkpt><trkpt lat="43.78379665103206" lon="10.932372019195741"><ele>52.0</ele><time>2026-05-01T17:03:54.002Z</time></trkpt><trkpt lat="43.78386710935282" lon="10.93237193810325"><ele>52.42857142857142</ele><time>2026-05-01T17:03:57.002Z</time></trkpt><trkpt lat="43.78393639632554" lon="10.932392921301567"><ele>52.85714285714286</ele><time>2026-05-01T17:04:00.002Z</time></trkpt><trkpt lat="43.7840007856479" lon="10.932437494985887"><ele>53.285714285714285</ele><time>2026-05-01T17:04:03.002Z</time></trkpt><trkpt lat="43.78406475532125" lon="10.932468919598902"><ele>53.71428571428571</ele><time>2026-05-01T17:04:06.002Z</time></trkpt><trkpt lat="43.7841231992942" lon="10.932525354179207"><ele>54.14285714285714</ele><time>2026-05-01T17:04:09.002Z</time></trkpt><trkpt lat="43.78417808102046" lon="10.932589861786141"><ele>54.57142857142857</ele><time>2026-05-01T17:04:12.002Z</time></trkpt><trkpt lat="43.784220147909394" lon="10.932663529245703"><ele>55.0</ele><time>2026-05-01T17:04:15.002Z</time></trkpt><trkpt lat="43.784281635504584" lon="10.932745270463528"><ele>54.99999999999999</ele><time>2026-05-01T17:04:19.002Z</time></trkpt><trkpt lat="43.78431259495977" lon="10.932827136889474"><ele>55.0</ele><time>2026-05-01T17:04:22.002Z</time></trkpt><trkpt lat="43.78435341737518" lon="10.93292789825445"><ele>55.0</ele><time>2026-05-01T17:04:26.002Z</time></trkpt><trkpt lat="43.78440684358183" lon="10.93298412658732"><ele>55.0</ele><time>2026-05-01T17:04:29.002Z</time></trkpt><trkpt lat="43.784443759055456" lon="10.933055767638452"><ele>55.0</ele><time>2026-05-01T17:04:32.002Z</time></trkpt><trkpt lat="43.78449354654438" lon="10.933110673273985"><ele>54.99999999999999</ele><time>2026-05-01T17:04:35.002Z</time></trkpt><trkpt lat="43.784543867264645" lon="10.933181341769425"><ele>55.0</ele><time>2026-05-01T17:04:38.002Z</time></trkpt><trkpt lat="43.78460765943044" lon="10.9332582401332"><ele>54.857142857142854</ele><time>2026-05-01T17:04:42.002Z</time></trkpt><trkpt lat="43.784657898552496" lon="10.933327253696989"><ele>54.714285714285715</ele><time>2026-05-01T17:04:45.002Z</time></trkpt><trkpt lat="43.78472741432605" lon="10.933394514114081"><ele>54.57142857142857</ele><time>2026-05-01T17:04:49.001Z</time></trkpt><trkpt lat="43.78479067412673" lon="10.93341397379674"><ele>54.42857142857143</ele><time>2026-05-01T17:04:52.001Z</time></trkpt><trkpt lat="43.78485556380118" lon="10.933439059436315"><ele>54.285714285714285</ele><time>2026-05-01T17:04:55.001Z</time></trkpt><trkpt lat="43.78492713255803" lon="10.933485194729018"><ele>54.14285714285714</ele><time>2026-05-01T17:04:59.001Z</time></trkpt><trkpt lat="43.78498788753692" lon="10.933540582275777"><ele>54.0</ele><time>2026-05-01T17:05:02.001Z</time></trkpt><trkpt lat="43.78504305655814" lon="10.933590198132768"><ele>54.0</ele><time>2026-05-01T17:05:05.001Z</time></trkpt><trkpt lat="43.78509319800517" lon="10.933646312707824"><ele>54.0</ele><time>2026-05-01T17:05:08.001Z</time></trkpt><trkpt lat="43.78515830926974" lon="10.933702394714965"><ele>54.0</ele><time>2026-05-01T17:05:12.001Z</time></trkpt><trkpt lat="43.785206144870784" lon="10.933761012150654"><ele>54.0</ele><time>2026-05-01T17:05:15.001Z</time></trkpt><trkpt lat="43.7852718875727" lon="10.933807832212958"><ele>54.0</ele><time>2026-05-01T17:05:18.001Z</time></trkpt><trkpt lat="43.785349876299335" lon="10.933842101325396"><ele>54.0</ele><time>2026-05-01T17:05:22.001Z</time></trkpt><trkpt lat="43.785424393021074" lon="10.933876801620288"><ele>54.0</ele><time>2026-05-01T17:05:26.001Z</time></trkpt><trkpt lat="43.78548400834263" lon="10.933906420121488"><ele>54.5</ele><time>2026-05-01T17:05:29.001Z</time></trkpt><trkpt lat="43.78556042152248" lon="10.933944172903766"><ele>55.0</ele><time>2026-05-01T17:05:33.001Z</time></trkpt><trkpt lat="43.78563208314168" lon="10.933997499191863"><ele>55.5</ele><time>2026-05-01T17:05:37.001Z</time></trkpt><trkpt lat="43.78570853423422" lon="10.934030676774904"><ele>56.0</ele><time>2026-05-01T17:05:41.001Z</time></trkpt><trkpt lat="43.785781896778865" lon="10.934071051494168"><ele>56.5</ele><time>2026-05-01T17:05:45.002Z</time></trkpt><trkpt lat="43.785854599333945" lon="10.934119226956133"><ele>57.0</ele><time>2026-05-01T17:05:49.002Z</time></trkpt><trkpt lat="43.78592776506546" lon="10.934150999971388"><ele>57.0</ele><time>2026-05-01T17:05:53Z</time></trkpt><trkpt lat="43.786000662454406" lon="10.934183863928613"><ele>56.99999999999999</ele><time>2026-05-01T17:05:56.999Z</time></trkpt><trkpt lat="43.78607432841973" lon="10.934212041582843"><ele>57.0</ele><time>2026-05-01T17:06:00.998Z</time></trkpt><trkpt lat="43.786147213012875" lon="10.93424428102509"><ele>57.0</ele><time>2026-05-01T17:06:04.997Z</time></trkpt><trkpt lat="43.786226511473345" lon="10.934258120638374"><ele>56.99999999999999</ele><time>2026-05-01T17:06:08.996Z</time></trkpt><trkpt lat="43.786283727713176" lon="10.934295436245076"><ele>57.0</ele><time>2026-05-01T17:06:11.996Z</time></trkpt><trkpt lat="43.786352909679614" lon="10.93433309078886"><ele>57.0</ele><time>2026-05-01T17:06:15.995Z</time></trkpt><trkpt lat="43.786422673537984" lon="10.934373690952139"><ele>57.71428571428571</ele><time>2026-05-01T17:06:19.995Z</time></trkpt><trkpt lat="43.78648549478719" lon="10.934416331209743"><ele>58.42857142857142</ele><time>2026-05-01T17:06:23.995Z</time></trkpt><trkpt lat="43.78654746332842" lon="10.934480343515139"><ele>59.14285714285714</ele><time>2026-05-01T17:06:27.995Z</time></trkpt><trkpt lat="43.78660104068364" lon="10.934549872186833"><ele>59.85714285714286</ele><time>2026-05-01T17:06:31.994Z</time></trkpt><trkpt lat="43.78665051886308" lon="10.934605811602028"><ele>60.57142857142858</ele><time>2026-05-01T17:06:35.994Z</time></trkpt><trkpt lat="43.78671236194839" lon="10.934630388671337"><ele>61.28571428571429</ele><time>2026-05-01T17:06:39.994Z</time></trkpt><trkpt lat="43.786773655757145" lon="10.934654316635273"><ele>62.0</ele><time>2026-05-01T17:06:43.994Z</time></trkpt><trkpt lat="43.786837519476464" lon="10.934694429208811"><ele>63.0</ele><time>2026-05-01T17:06:48.994Z</time></trkpt><trkpt lat="43.7869077723768" lon="10.934690222554407"><ele>64.0</ele><time>2026-05-01T17:06:53.994Z</time></trkpt><trkpt lat="43.78696300523147" lon="10.93475203631976"><ele>65.0</ele><time>2026-05-01T17:06:58.994Z</time></trkpt><trkpt lat="43.787021651073644" lon="10.93481348382482"><ele>66.0</ele><time>2026-05-01T17:07:04.993Z</time></trkpt><trkpt lat="43.78707209007557" lon="10.93487209696132"><ele>67.0</ele><time>2026-05-01T17:07:09.993Z</time></trkpt><trkpt lat="43.787131663109065" lon="10.934907422026711"><ele>68.0</ele><time>2026-05-01T17:07:14.993Z</time></trkpt><trkpt lat="43.787186245585346" lon="10.934962153831895"><ele>69.0</ele><time>2026-05-01T17:07:19.993Z</time></trkpt><trkpt lat="43.7872529828603" lon="10.934993641509596"><ele>69.0</ele><time>2026-05-01T17:07:24.993Z</time></trkpt><trkpt lat="43.78730575173141" lon="10.935048289269814"><ele>69.0</ele><time>2026-05-01T17:07:29.993Z</time></trkpt><trkpt lat="43.78735518791855" lon="10.935106267418115"><ele>69.0</ele><time>2026-05-01T17:07:34.993Z</time></trkpt><trkpt lat="43.7874050474577" lon="10.935180455787046"><ele>69.0</ele><time>2026-05-01T17:07:39.993Z</time></trkpt><trkpt lat="43.78745686023841" lon="10.935234435234133"><ele>69.0</ele><time>2026-05-01T17:07:44.993Z</time></trkpt><trkpt lat="43.787528648532074" lon="10.935264375292272"><ele>69.0</ele><time>2026-05-01T17:07:49.993Z</time></trkpt><trkpt lat="43.787597118301065" lon="10.935293444922563"><ele>69.0</ele><time>2026-05-01T17:07:54.994Z</time></trkpt><trkpt lat="43.78765761050422" lon="10.935346310585379"><ele>71.14285714285714</ele><time>2026-05-01T17:07:59.994Z</time></trkpt><trkpt lat="43.78771723652673" lon="10.935386041364808"><ele>73.28571428571429</ele><time>2026-05-01T17:08:04.994Z</time></trkpt><trkpt lat="43.78777608934964" lon="10.935442704885713"><ele>75.42857142857143</ele><time>2026-05-01T17:08:09.994Z</time></trkpt><trkpt lat="43.78783702237669" lon="10.935489281416988"><ele>77.57142857142857</ele><time>2026-05-01T17:08:15.994Z</time></trkpt><trkpt lat="43.787900346167774" lon="10.93553076845067"><ele>79.71428571428572</ele><time>2026-05-01T17:08:21.994Z</time></trkpt><trkpt lat="43.78795186616838" lon="10.93558811099819"><ele>81.85714285714286</ele><time>2026-05-01T17:08:27.994Z</time></trkpt><trkpt lat="43.78801236956838" lon="10.935618637063428"><ele>84.0</ele><time>2026-05-01T17:08:33.994Z</time></trkpt><trkpt lat="43.788061185478306" lon="10.9356855583364"><ele>84.0</ele><time>2026-05-01T17:08:40.994Z</time></trkpt><trkpt lat="43.78806331818841" lon="10.93577588343659"><ele>84.0</ele><time>2026-05-01T17:08:46.994Z</time></trkpt><trkpt lat="43.78805640499411" lon="10.935867676308082"><ele>84.0</ele><time>2026-05-01T17:08:52.994Z</time></trkpt><trkpt lat="43.78807328092906" lon="10.935953809508703"><ele>84.0</ele><time>2026-05-01T17:08:58.994Z</time></trkpt><trkpt lat="43.78811258171299" lon="10.936038884746809"><ele>84.0</ele><time>2026-05-01T17:09:05.994Z</time></trkpt><trkpt lat="43.78815249269137" lon="10.936108393293985"><ele>84.0</ele><time>2026-05-01T17:09:11.993Z</time></trkpt><trkpt lat="43.78818629467784" lon="10.936203444721917"><ele>84.0</ele><time>2026-05-01T17:09:17.993Z</time></trkpt><trkpt lat="43.78822390656014" lon="10.936279074781613"><ele>85.28571428571429</ele><time>2026-05-01T17:09:23.993Z</time></trkpt><trkpt lat="43.78825743057322" lon="10.936373719001454"><ele>86.57142857142857</ele><time>2026-05-01T17:09:29.993Z</time></trkpt><trkpt lat="43.78829264353993" lon="10.936453191682967"><ele>87.85714285714286</ele><time>2026-05-01T17:09:35.993Z</time></trkpt><trkpt lat="43.78832680238032" lon="10.936530912182556"><ele>89.14285714285714</ele><time>2026-05-01T17:09:40.993Z</time></trkpt><trkpt lat="43.7883557429294" lon="10.93661364168753"><ele>90.42857142857143</ele><time>2026-05-01T17:09:45.993Z</time></trkpt><trkpt lat="43.7884246491708" lon="10.936595950781422"><ele>91.71428571428572</ele><time>2026-05-01T17:09:49.993Z</time></trkpt><trkpt lat="43.78849740513348" lon="10.936580491575297"><ele>93.0</ele><time>2026-05-01T17:09:54.993Z</time></trkpt><trkpt lat="43.78857076945959" lon="10.936586774393138"><ele>94.00000000000001</ele><time>2026-05-01T17:09:59.993Z</time></trkpt><trkpt lat="43.78864057429163" lon="10.936592963080138"><ele>95.0</ele><time>2026-05-01T17:10:02.994Z</time></trkpt><trkpt lat="43.78870613845051" lon="10.93657979897797"><ele>96.0</ele><time>2026-05-01T17:10:05.993Z</time></trkpt><trkpt lat="43.78877086652791" lon="10.936581269137365"><ele>97.0</ele><time>2026-05-01T17:10:08.994Z</time></trkpt><trkpt lat="43.788836553979834" lon="10.936574004232305"><ele>98.0</ele><time>2026-05-01T17:10:11.994Z</time></trkpt><trkpt lat="43.78891522841728" lon="10.936579944443803"><ele>99.00000000000001</ele><time>2026-05-01T17:10:15.994Z</time></trkpt><trkpt lat="43.78897985708597" lon="10.936591073172528"><ele>100.0</ele><time>2026-05-01T17:10:18.994Z</time></trkpt><trkpt lat="43.78906086903496" lon="10.936558692676213"><ele>100.00000000000001</ele><time>2026-05-01T17:10:22.994Z</time></trkpt><trkpt lat="43.789136710330936" lon="10.936526265713447"><ele>100.0</ele><time>2026-05-01T17:10:26.994Z</time></trkpt><trkpt lat="43.789191828096484" lon="10.936480858446219"><ele>100.0</ele><time>2026-05-01T17:10:29.994Z</time></trkpt><trkpt lat="43.789264501832086" lon="10.936449094206038"><ele>100.0</ele><time>2026-05-01T17:10:33.994Z</time></trkpt><trkpt lat="43.78932342317891" lon="10.936390956271563"><ele>100.0</ele><time>2026-05-01T17:10:37.994Z</time></trkpt><trkpt lat="43.789387031947605" lon="10.936333504896261"><ele>100.00000000000001</ele><time>2026-05-01T17:10:41.994Z</time></trkpt><trkpt lat="43.78944562192776" lon="10.936300596074345"><ele>100.0</ele><time>2026-05-01T17:10:44.994Z</time></trkpt><trkpt lat="43.78950649157083" lon="10.936245249177803"><ele>100.85714285714286</ele><time>2026-05-01T17:10:48.994Z</time></trkpt><trkpt lat="43.78951140831882" lon="10.936139446821878"><ele>101.71428571428572</ele><time>2026-05-01T17:10:52.994Z</time></trkpt><trkpt lat="43.789502992452576" lon="10.936042196275706"><ele>102.57142857142858</ele><time>2026-05-01T17:10:56.994Z</time></trkpt><trkpt lat="43.78948688291332" lon="10.935940005099193"><ele>103.42857142857143</ele><time>2026-05-01T17:11:00.994Z</time></trkpt><trkpt lat="43.78947123328289" lon="10.935838758252189"><ele>104.28571428571428</ele><time>2026-05-01T17:11:04.994Z</time></trkpt><trkpt lat="43.789458287874034" lon="10.935741241319194"><ele>105.14285714285715</ele><time>2026-05-01T17:11:08.993Z</time></trkpt><trkpt lat="43.789443081045334" lon="10.935643495950254"><ele>106.0</ele><time>2026-05-01T17:11:12.993Z</time></trkpt><trkpt lat="43.78947404856883" lon="10.935555641312385"><ele>106.00000000000001</ele><time>2026-05-01T17:11:16.993Z</time></trkpt><trkpt lat="43.789546123020756" lon="10.935552302358836"><ele>106.0</ele><time>2026-05-01T17:11:21.993Z</time></trkpt><trkpt lat="43.78962940851975" lon="10.935515092528108"><ele>106.0</ele><time>2026-05-01T17:11:25.993Z</time></trkpt><trkpt lat="43.7897029816965" lon="10.935478095406209"><ele>106.0</ele><time>2026-05-01T17:11:29.993Z</time></trkpt><trkpt lat="43.78976969854951" lon="10.935471948434582"><ele>106.00000000000001</ele><time>2026-05-01T17:11:32.993Z</time></trkpt><trkpt lat="43.789847926995954" lon="10.935460054161117"><ele>106.0</ele><time>2026-05-01T17:11:36.993Z</time></trkpt><trkpt lat="43.789927615359396" lon="10.935431939499049"><ele>106.0</ele><time>2026-05-01T17:11:42.993Z</time></trkpt><trkpt lat="43.79000159406298" lon="10.935427831074318"><ele>106.0</ele><time>2026-05-01T17:11:46.993Z</time></trkpt><trkpt lat="43.79007762636104" lon="10.935423650527525"><ele>106.0</ele><time>2026-05-01T17:11:50.993Z</time></trkpt><trkpt lat="43.79015270804694" lon="10.93541795545936"><ele>106.0</ele><time>2026-05-01T17:11:54.993Z</time></trkpt><trkpt lat="43.79022645697414" lon="10.935412914215659"><ele>106.0</ele><time>2026-05-01T17:11:58.993Z</time></trkpt><trkpt lat="43.79028795921863" lon="10.935442763521063"><ele>106.0</ele><time>2026-05-01T17:12:01.993Z</time></trkpt><trkpt lat="43.79035983896732" lon="10.935469166291675"><ele>106.0</ele><time>2026-05-01T17:12:05.994Z</time></trkpt><trkpt lat="43.79043314565046" lon="10.935521011518047"><ele>107.42857142857143</ele><time>2026-05-01T17:12:09.994Z</time></trkpt><trkpt lat="43.79049285890505" lon="10.935551080022998"><ele>108.85714285714286</ele><time>2026-05-01T17:12:12.994Z</time></trkpt><trkpt lat="43.79056709801455" lon="10.935588444986166"><ele>110.28571428571429</ele><time>2026-05-01T17:12:16.994Z</time></trkpt><trkpt lat="43.79063413404636" lon="10.935595350597245"><ele>111.71428571428572</ele><time>2026-05-01T17:12:20.994Z</time></trkpt><trkpt lat="43.79069520569111" lon="10.935540101272188"><ele>113.14285714285714</ele><time>2026-05-01T17:12:24.994Z</time></trkpt><trkpt lat="43.79068434631288" lon="10.935433137110262"><ele>114.57142857142858</ele><time>2026-05-01T17:12:28.994Z</time></trkpt><trkpt lat="43.79066059753676" lon="10.935338679648392"><ele>116.00000000000001</ele><time>2026-05-01T17:12:32.994Z</time></trkpt><trkpt lat="43.790603968033324" lon="10.935277666924794"><ele>116.00000000000001</ele><time>2026-05-01T17:12:36.994Z</time></trkpt><trkpt lat="43.790527432028725" lon="10.935236186081283"><ele>116.0</ele><time>2026-05-01T17:12:40.994Z</time></trkpt><trkpt lat="43.79048355340395" lon="10.93515562579524"><ele>116.00000000000001</ele><time>2026-05-01T17:12:44.994Z</time></trkpt><trkpt lat="43.790440791003846" lon="10.935079432227768"><ele>116.00000000000001</ele><time>2026-05-01T17:12:48.994Z</time></trkpt><trkpt lat="43.79041223686394" lon="10.934999141961743"><ele>116.0</ele><time>2026-05-01T17:12:52.994Z</time></trkpt><trkpt lat="43.79038833677426" lon="10.93491481727315"><ele>116.00000000000001</ele><time>2026-05-01T17:12:56.993Z</time></trkpt><trkpt lat="43.79039828111187" lon="10.934821914839448"><ele>116.00000000000001</ele><time>2026-05-01T17:13:00.993Z</time></trkpt><trkpt lat="43.79046762340553" lon="10.934850499892278"><ele>114.42857142857144</ele><time>2026-05-01T17:13:08.993Z</time></trkpt><trkpt lat="43.79055217287147" lon="10.934810221335045"><ele>112.85714285714286</ele><time>2026-05-01T17:13:16.993Z</time></trkpt><trkpt lat="43.79061370308832" lon="10.934791738722437"><ele>111.28571428571429</ele><time>2026-05-01T17:13:21.993Z</time></trkpt><trkpt lat="43.79067146791897" lon="10.934748052864249"><ele>109.71428571428572</ele><time>2026-05-01T17:13:26.993Z</time></trkpt><trkpt lat="43.79070781753775" lon="10.93466656680004"><ele>108.14285714285714</ele><time>2026-05-01T17:13:32.993Z</time></trkpt><trkpt lat="43.79077290350223" lon="10.93460851188388"><ele>106.57142857142857</ele><time>2026-05-01T17:13:38.993Z</time></trkpt><trkpt lat="43.79083695023543" lon="10.93458961784057"><ele>105.0</ele><time>2026-05-01T17:13:43.993Z</time></trkpt><trkpt lat="43.79089674375091" lon="10.93455159069617"><ele>105.0</ele><time>2026-05-01T17:13:49.993Z</time></trkpt><trkpt lat="43.79095715100141" lon="10.934492796343969"><ele>105.0</ele><time>2026-05-01T17:13:53.993Z</time></trkpt><trkpt lat="43.791005202209" lon="10.934433202312034"><ele>105.0</ele><time>2026-05-01T17:13:58.993Z</time></trkpt><trkpt lat="43.79107164920852" lon="10.934400977546751"><ele>105.0</ele><time>2026-05-01T17:14:02.992Z</time></trkpt><trkpt lat="43.791143733326834" lon="10.934385683839688"><ele>105.0</ele><time>2026-05-01T17:14:07.992Z</time></trkpt><trkpt lat="43.79120167726861" lon="10.934347770988609"><ele>105.0</ele><time>2026-05-01T17:14:12.994Z</time></trkpt><trkpt lat="43.79127367612668" lon="10.934345801050144"><ele>105.0</ele><time>2026-05-01T17:14:17.994Z</time></trkpt><trkpt lat="43.79134302075787" lon="10.934335316437151"><ele>106.57142857142857</ele><time>2026-05-01T17:14:21.994Z</time></trkpt><trkpt lat="43.79140513529186" lon="10.934315443568542"><ele>108.14285714285714</ele><time>2026-05-01T17:14:27.994Z</time></trkpt><trkpt lat="43.79147283903685" lon="10.93432745432563"><ele>109.71428571428572</ele><time>2026-05-01T17:14:33.994Z</time></trkpt><trkpt lat="43.791545622398125" lon="10.934304868091827"><ele>111.28571428571429</ele><time>2026-05-01T17:14:40.993Z</time></trkpt><trkpt lat="43.79158765574839" lon="10.934227634953071"><ele>112.85714285714286</ele><time>2026-05-01T17:14:45.993Z</time></trkpt><trkpt lat="43.7916170626795" lon="10.934132661973784"><ele>114.42857142857144</ele><time>2026-05-01T17:14:50.993Z</time></trkpt><trkpt lat="43.79164435166521" lon="10.934034699628793"><ele>116.00000000000001</ele><time>2026-05-01T17:14:54.993Z</time></trkpt><trkpt lat="43.79167027662473" lon="10.933949611895713"><ele>116.00000000000001</ele><time>2026-05-01T17:14:58.993Z</time></trkpt><trkpt lat="43.79167409329806" lon="10.933857336293496"><ele>116.0</ele><time>2026-05-01T17:15:02.993Z</time></trkpt><trkpt lat="43.79169413222191" lon="10.933760420712977"><ele>116.00000000000001</ele><time>2026-05-01T17:15:07.993Z</time></trkpt><trkpt lat="43.791724372596654" lon="10.93368013438688"><ele>116.00000000000001</ele><time>2026-05-01T17:15:11.993Z</time></trkpt><trkpt lat="43.79176497547858" lon="10.933607487941721"><ele>116.0</ele><time>2026-05-01T17:15:15.993Z</time></trkpt><trkpt lat="43.79181856494716" lon="10.933536306585145"><ele>116.00000000000001</ele><time>2026-05-01T17:15:20.993Z</time></trkpt><trkpt lat="43.79188020655482" lon="10.933492176400764"><ele>116.00000000000001</ele><time>2026-05-01T17:15:25.993Z</time></trkpt><trkpt lat="43.791953822273435" lon="10.933470785184944"><ele>118.42857142857144</ele><time>2026-05-01T17:15:30.993Z</time></trkpt><trkpt lat="43.79201494376204" lon="10.933418199922528"><ele>120.85714285714286</ele><time>2026-05-01T17:15:35.993Z</time></trkpt><trkpt lat="43.79206872349762" lon="10.933337570596722"><ele>123.28571428571429</ele><time>2026-05-01T17:15:40.993Z</time></trkpt><trkpt lat="43.792089145855776" lon="10.933249528832373"><ele>125.71428571428572</ele><time>2026-05-01T17:15:44.993Z</time></trkpt><trkpt lat="43.792094458858095" lon="10.933138957633764"><ele>128.14285714285714</ele><time>2026-05-01T17:15:49.992Z</time></trkpt><trkpt lat="43.79206379686095" lon="10.93304750420416"><ele>130.57142857142858</ele><time>2026-05-01T17:15:53.992Z</time></trkpt><trkpt lat="43.79200248683216" lon="10.932996821159332"><ele>133.0</ele><time>2026-05-01T17:15:56.992Z</time></trkpt><trkpt lat="43.79192481839622" lon="10.932965809163514"><ele>133.14285714285714</ele><time>2026-05-01T17:16:00.992Z</time></trkpt><trkpt lat="43.79184920183819" lon="10.932947205444522"><ele>133.28571428571428</ele><time>2026-05-01T17:16:04.992Z</time></trkpt><trkpt lat="43.79177442128411" lon="10.932953441082935"><ele>133.42857142857144</ele><time>2026-05-01T17:16:08.992Z</time></trkpt><trkpt lat="43.79170345847655" lon="10.932958155649958"><ele>133.57142857142856</ele><time>2026-05-01T17:16:12.992Z</time></trkpt><trkpt lat="43.79163624694893" lon="10.932960634497034"><ele>133.71428571428572</ele><time>2026-05-01T17:16:16.993Z</time></trkpt><trkpt lat="43.791566209549124" lon="10.932986383531075"><ele>133.85714285714286</ele><time>2026-05-01T17:16:20.994Z</time></trkpt><trkpt lat="43.791499973805216" lon="10.932981865462533"><ele>134.0</ele><time>2026-05-01T17:16:24.994Z</time></trkpt><trkpt lat="43.79142201434282" lon="10.932976104196605"><ele>132.28571428571428</ele><time>2026-05-01T17:16:29.993Z</time></trkpt><trkpt lat="43.79135180470889" lon="10.932990006052506"><ele>130.57142857142856</ele><time>2026-05-01T17:16:33.993Z</time></trkpt><trkpt lat="43.791278849621236" lon="10.933011030582787"><ele>128.85714285714283</ele><time>2026-05-01T17:16:37.993Z</time></trkpt><trkpt lat="43.791203154778245" lon="10.933019343990125"><ele>127.14285714285714</ele><time>2026-05-01T17:16:41.993Z</time></trkpt><trkpt lat="43.791137860964604" lon="10.93302398877553"><ele>125.42857142857142</ele><time>2026-05-01T17:16:45.993Z</time></trkpt><trkpt lat="43.791065242394986" lon="10.933010814239514"><ele>123.7142857142857</ele><time>2026-05-01T17:16:50.993Z</time></trkpt><trkpt lat="43.79100509590376" lon="10.932978314233466"><ele>121.99999999999999</ele><time>2026-05-01T17:16:54.993Z</time></trkpt><trkpt lat="43.79094064311304" lon="10.932997072803785"><ele>121.99999999999999</ele><time>2026-05-01T17:16:58.993Z</time></trkpt><trkpt lat="43.79086806510057" lon="10.932979130486588"><ele>122.0</ele><time>2026-05-01T17:17:03.993Z</time></trkpt><trkpt lat="43.790803259214684" lon="10.932942358649914"><ele>121.99999999999999</ele><time>2026-05-01T17:17:08.993Z</time></trkpt><trkpt lat="43.79072980218435" lon="10.932905123435186"><ele>121.99999999999999</ele><time>2026-05-01T17:17:13.993Z</time></trkpt><trkpt lat="43.79066263636898" lon="10.932869484644243"><ele>122.0</ele><time>2026-05-01T17:17:17.992Z</time></trkpt><trkpt lat="43.79059451226" lon="10.932820126620596"><ele>121.99999999999999</ele><time>2026-05-01T17:17:21.992Z</time></trkpt><trkpt lat="43.79053147465107" lon="10.932765152205365"><ele>121.99999999999999</ele><time>2026-05-01T17:17:25.992Z</time></trkpt><trkpt lat="43.790467925654774" lon="10.932723733974868"><ele>121.99999999999999</ele><time>2026-05-01T17:17:29.992Z</time></trkpt><trkpt lat="43.7903992055863" lon="10.932660842364902"><ele>122.0</ele><time>2026-05-01T17:17:33.992Z</time></trkpt><trkpt lat="43.79033472369069" lon="10.932617681138002"><ele>122.0</ele><time>2026-05-01T17:17:37.992Z</time></trkpt><trkpt lat="43.79027285504802" lon="10.932563996133148"><ele>122.0</ele><time>2026-05-01T17:17:41.992Z</time></trkpt><trkpt lat="43.79022729100139" lon="10.932487412086283"><ele>121.99999999999999</ele><time>2026-05-01T17:17:44.992Z</time></trkpt><trkpt lat="43.79015277419151" lon="10.932437135949678"><ele>122.0</ele><time>2026-05-01T17:17:48.992Z</time></trkpt><trkpt lat="43.79007949986822" lon="10.932396604922248"><ele>121.7142857142857</ele><time>2026-05-01T17:17:52.992Z</time></trkpt><trkpt lat="43.7900027315122" lon="10.932364121431469"><ele>121.42857142857142</ele><time>2026-05-01T17:17:56.992Z</time></trkpt><trkpt lat="43.789930654816175" lon="10.932315353113957"><ele>121.14285714285714</ele><time>2026-05-01T17:18:00.992Z</time></trkpt><trkpt lat="43.789865945243406" lon="10.932311507560435"><ele>120.85714285714285</ele><time>2026-05-01T17:18:03.992Z</time></trkpt><trkpt lat="43.78980235995424" lon="10.932271728822247"><ele>120.57142857142856</ele><time>2026-05-01T17:18:06.992Z</time></trkpt><trkpt lat="43.78972497893435" lon="10.932226358153128"><ele>120.28571428571429</ele><time>2026-05-01T17:18:10.992Z</time></trkpt><trkpt lat="43.78966884370615" lon="10.932186290680313"><ele>120.0</ele><time>2026-05-01T17:18:13.992Z</time></trkpt><trkpt lat="43.78960425821337" lon="10.932156213827659"><ele>120.0</ele><time>2026-05-01T17:18:16.992Z</time></trkpt><trkpt lat="43.78954263997264" lon="10.932123510844956"><ele>120.0</ele><time>2026-05-01T17:18:19.992Z</time></trkpt><trkpt lat="43.78946572277556" lon="10.932093689592143"><ele>120.0</ele><time>2026-05-01T17:18:23.993Z</time></trkpt><trkpt lat="43.78941172526836" lon="10.93203971945853"><ele>120.0</ele><time>2026-05-01T17:18:26.994Z</time></trkpt><trkpt lat="43.789337666671585" lon="10.931995173163802"><ele>120.0</ele><time>2026-05-01T17:18:30.993Z</time></trkpt><trkpt lat="43.78925745164162" lon="10.931963437959071"><ele>120.0</ele><time>2026-05-01T17:18:34.993Z</time></trkpt><trkpt lat="43.78918328381184" lon="10.931924675596683"><ele>120.42857142857143</ele><time>2026-05-01T17:18:38.993Z</time></trkpt><trkpt lat="43.7891120577531" lon="10.931885694778028"><ele>120.85714285714286</ele><time>2026-05-01T17:18:42.993Z</time></trkpt><trkpt lat="43.789041562762414" lon="10.931854699678082"><ele>121.28571428571429</ele><time>2026-05-01T17:18:46.993Z</time></trkpt><trkpt lat="43.78897589774832" lon="10.931825582911113"><ele>121.71428571428572</ele><time>2026-05-01T17:18:50.993Z</time></trkpt><trkpt lat="43.788914434672655" lon="10.93177458048431"><ele>122.14285714285714</ele><time>2026-05-01T17:18:54.992Z</time></trkpt><trkpt lat="43.788836791583776" lon="10.931744668675146"><ele>122.57142857142858</ele><time>2026-05-01T17:18:58.992Z</time></trkpt><trkpt lat="43.78877674456423" lon="10.93169266488038"><ele>123.00000000000001</ele><time>2026-05-01T17:19:02.992Z</time></trkpt><trkpt lat="43.78871124808136" lon="10.931643791066945"><ele>122.5</ele><time>2026-05-01T17:19:06.992Z</time></trkpt><trkpt lat="43.788658639492716" lon="10.931588497355543"><ele>122.0</ele><time>2026-05-01T17:19:09.992Z</time></trkpt><trkpt lat="43.788591019390985" lon="10.93153489414298"><ele>121.5</ele><time>2026-05-01T17:19:13.992Z</time></trkpt><trkpt lat="43.788513509947265" lon="10.931504676566194"><ele>121.0</ele><time>2026-05-01T17:19:17.992Z</time></trkpt><trkpt lat="43.78843761090245" lon="10.931473464553617"><ele>120.5</ele><time>2026-05-01T17:19:21.992Z</time></trkpt><trkpt lat="43.78835785987968" lon="10.931459779053899"><ele>120.0</ele><time>2026-05-01T17:19:25.992Z</time></trkpt><trkpt lat="43.78827677338118" lon="10.931463163813138"><ele>120.0</ele><time>2026-05-01T17:19:29.992Z</time></trkpt><trkpt lat="43.78821112898309" lon="10.931472408193432"><ele>120.0</ele><time>2026-05-01T17:19:32.992Z</time></trkpt><trkpt lat="43.78812798298097" lon="10.931469836937131"><ele>120.0</ele><time>2026-05-01T17:19:36.992Z</time></trkpt><trkpt lat="43.78804743571218" lon="10.931447921047464"><ele>120.0</ele><time>2026-05-01T17:19:40.992Z</time></trkpt><trkpt lat="43.78798665436525" lon="10.931408435773747"><ele>120.0</ele><time>2026-05-01T17:19:43.992Z</time></trkpt><trkpt lat="43.78792635489449" lon="10.931361917295598"><ele>120.0</ele><time>2026-05-01T17:19:46.992Z</time></trkpt><trkpt lat="43.78785528753372" lon="10.93130266351081"><ele>120.0</ele><time>2026-05-01T17:19:50.992Z</time></trkpt><trkpt lat="43.78779001486907" lon="10.931276893245018"><ele>120.0</ele><time>2026-05-01T17:19:53.992Z</time></trkpt><trkpt lat="43.78773031329538" lon="10.93124096909613"><ele>120.0</ele><time>2026-05-01T17:19:56.992Z</time></trkpt><trkpt lat="43.78766517831075" lon="10.931216977938679"><ele>120.0</ele><time>2026-05-01T17:19:59.992Z</time></trkpt><trkpt lat="43.787594777108204" lon="10.931201471236477"><ele>120.0</ele><time>2026-05-01T17:20:02.991Z</time></trkpt><trkpt lat="43.78753127957813" lon="10.931198023031806"><ele>120.0</ele><time>2026-05-01T17:20:05.991Z</time></trkpt><trkpt lat="43.78744567926206" lon="10.931190074359245"><ele>120.0</ele><time>2026-05-01T17:20:09.991Z</time></trkpt><trkpt lat="43.787377517859305" lon="10.931181342803226"><ele>119.0</ele><time>2026-05-01T17:20:12.991Z</time></trkpt><trkpt lat="43.78729715802111" lon="10.931159074819545"><ele>118.0</ele><time>2026-05-01T17:20:16.991Z</time></trkpt><trkpt lat="43.787233970407925" lon="10.931146185837031"><ele>117.0</ele><time>2026-05-01T17:20:19.991Z</time></trkpt><trkpt lat="43.7871511262432" lon="10.931122199787794"><ele>116.0</ele><time>2026-05-01T17:20:23.991Z</time></trkpt><trkpt lat="43.787086484160156" lon="10.931099859940323"><ele>115.0</ele><time>2026-05-01T17:20:26.993Z</time></trkpt><trkpt lat="43.787022238944225" lon="10.931050968139907"><ele>114.0</ele><time>2026-05-01T17:20:29.994Z</time></trkpt><trkpt lat="43.786976416151184" lon="10.930963867030137"><ele>113.0</ele><time>2026-05-01T17:20:32.993Z</time></trkpt><trkpt lat="43.786970428546425" lon="10.930865355242103"><ele>113.0</ele><time>2026-05-01T17:20:35.994Z</time></trkpt><trkpt lat="43.78698983228329" lon="10.93078006127761"><ele>113.0</ele><time>2026-05-01T17:20:38.993Z</time></trkpt><trkpt lat="43.78700103289521" lon="10.930691936109529"><ele>113.0</ele><time>2026-05-01T17:20:41.993Z</time></trkpt><trkpt lat="43.78700077208919" lon="10.930601804748163"><ele>113.0</ele><time>2026-05-01T17:20:44.993Z</time></trkpt><trkpt lat="43.787012091912075" lon="10.93051480368849"><ele>113.0</ele><time>2026-05-01T17:20:47.993Z</time></trkpt><trkpt lat="43.78702591039999" lon="10.93042283206792"><ele>113.0</ele><time>2026-05-01T17:20:50.993Z</time></trkpt><trkpt lat="43.78703227365193" lon="10.930323820215966"><ele>113.0</ele><time>2026-05-01T17:20:53.993Z</time></trkpt><trkpt lat="43.78702816079191" lon="10.93022718341322"><ele>113.0</ele><time>2026-05-01T17:20:56.993Z</time></trkpt><trkpt lat="43.78699254359612" lon="10.930154083993788"><ele>113.0</ele><time>2026-05-01T17:20:59.992Z</time></trkpt><trkpt lat="43.78695412272543" lon="10.930073551837188"><ele>113.0</ele><time>2026-05-01T17:21:02.992Z</time></trkpt><trkpt lat="43.786907601760404" lon="10.930010982892716"><ele>113.0</ele><time>2026-05-01T17:21:05.992Z</time></trkpt><trkpt lat="43.78687007144593" lon="10.929932364248451"><ele>113.0</ele><time>2026-05-01T17:21:08.992Z</time></trkpt><trkpt lat="43.786826709228386" lon="10.929863491150098"><ele>113.0</ele><time>2026-05-01T17:21:11.992Z</time></trkpt><trkpt lat="43.78677360204552" lon="10.929774365253282"><ele>113.0</ele><time>2026-05-01T17:21:15.992Z</time></trkpt><trkpt lat="43.78673100625982" lon="10.929702882214944"><ele>111.71428571428572</ele><time>2026-05-01T17:21:18.992Z</time></trkpt><trkpt lat="43.786685519157295" lon="10.929609245401753"><ele>110.42857142857142</ele><time>2026-05-01T17:21:22.992Z</time></trkpt><trkpt lat="43.78664434776412" lon="10.929540886644082"><ele>109.14285714285714</ele><time>2026-05-01T17:21:25.992Z</time></trkpt><trkpt lat="43.78660796041351" lon="10.929463240973313"><ele>107.85714285714286</ele><time>2026-05-01T17:21:28.992Z</time></trkpt><trkpt lat="43.78655649403116" lon="10.929376557261623"><ele>106.57142857142858</ele><time>2026-05-01T17:21:32.992Z</time></trkpt><trkpt lat="43.78649989236361" lon="10.92929770826632"><ele>105.28571428571428</ele><time>2026-05-01T17:21:36.992Z</time></trkpt><trkpt lat="43.78647177064311" lon="10.929219577067947"><ele>104.0</ele><time>2026-05-01T17:21:39.992Z</time></trkpt><trkpt lat="43.78650500668674" lon="10.929144348019069"><ele>103.57142857142857</ele><time>2026-05-01T17:21:42.992Z</time></trkpt><trkpt lat="43.786573843935756" lon="10.929133742446956"><ele>103.14285714285715</ele><time>2026-05-01T17:21:45.992Z</time></trkpt><trkpt lat="43.78664486166105" lon="10.9291370967281"><ele>102.71428571428572</ele><time>2026-05-01T17:21:48.992Z</time></trkpt><trkpt lat="43.786708232014725" lon="10.929186438478819"><ele>102.28571428571428</ele><time>2026-05-01T17:21:51.992Z</time></trkpt><trkpt lat="43.78678939217011" lon="10.929192934737937"><ele>101.85714285714286</ele><time>2026-05-01T17:21:55.992Z</time></trkpt><trkpt lat="43.78685457352961" lon="10.929192571300932"><ele>101.42857142857143</ele><time>2026-05-01T17:21:58.992Z</time></trkpt><trkpt lat="43.786924468165346" lon="10.929207481864651"><ele>101.0</ele><time>2026-05-01T17:22:01.992Z</time></trkpt><trkpt lat="43.78699632455527" lon="10.929232273170852"><ele>101.0</ele><time>2026-05-01T17:22:04.992Z</time></trkpt><trkpt lat="43.78705809855305" lon="10.92925249829308"><ele>101.0</ele><time>2026-05-01T17:22:07.991Z</time></trkpt><trkpt lat="43.78712087296056" lon="10.929279807053934"><ele>101.0</ele><time>2026-05-01T17:22:10.991Z</time></trkpt><trkpt lat="43.78718615109089" lon="10.929290704116545"><ele>101.0</ele><time>2026-05-01T17:22:13.991Z</time></trkpt><trkpt lat="43.78724983779183" lon="10.92930949548627"><ele>101.0</ele><time>2026-05-01T17:22:16.991Z</time></trkpt><trkpt lat="43.787318942388175" lon="10.929328923144295"><ele>101.0</ele><time>2026-05-01T17:22:19.991Z</time></trkpt><trkpt lat="43.78738466841212" lon="10.929358322897537"><ele>101.0</ele><time>2026-05-01T17:22:22.991Z</time></trkpt><trkpt lat="43.78745609962237" lon="10.92939124026692"><ele>101.0</ele><time>2026-05-01T17:22:25.991Z</time></trkpt><trkpt lat="43.78752040862889" lon="10.929430995797844"><ele>101.0</ele><time>2026-05-01T17:22:28.991Z</time></trkpt><trkpt lat="43.7875924663105" lon="10.929443628785059"><ele>101.0</ele><time>2026-05-01T17:22:31.991Z</time></trkpt><trkpt lat="43.78766367175548" lon="10.929475592970668"><ele>101.0</ele><time>2026-05-01T17:22:34.993Z</time></trkpt><trkpt lat="43.7877345148127" lon="10.929505625265262"><ele>101.0</ele><time>2026-05-01T17:22:37.993Z</time></trkpt><trkpt lat="43.78780452052467" lon="10.929518369321947"><ele>101.0</ele><time>2026-05-01T17:22:40.993Z</time></trkpt><trkpt lat="43.78787658755621" lon="10.929529630861715"><ele>101.0</ele><time>2026-05-01T17:22:43.993Z</time></trkpt><trkpt lat="43.78794042991336" lon="10.929524135354269"><ele>100.14285714285714</ele><time>2026-05-01T17:22:46.993Z</time></trkpt><trkpt lat="43.78802460427992" lon="10.929493446821676"><ele>99.28571428571428</ele><time>2026-05-01T17:22:50.993Z</time></trkpt><trkpt lat="43.78809099293019" lon="10.92947917553953"><ele>98.42857142857143</ele><time>2026-05-01T17:22:53.993Z</time></trkpt><trkpt lat="43.78815698796751" lon="10.92947221042511"><ele>97.57142857142857</ele><time>2026-05-01T17:22:56.993Z</time></trkpt><trkpt lat="43.7882267538041" lon="10.929426541452033"><ele>96.71428571428572</ele><time>2026-05-01T17:23:00.993Z</time></trkpt><trkpt lat="43.788290715107735" lon="10.92942179025945"><ele>95.85714285714286</ele><time>2026-05-01T17:23:03.993Z</time></trkpt><trkpt lat="43.78835600356883" lon="10.92941264974764"><ele>95.0</ele><time>2026-05-01T17:23:06.993Z</time></trkpt><trkpt lat="43.788436014952104" lon="10.92943649226198"><ele>95.0</ele><time>2026-05-01T17:23:10.993Z</time></trkpt><trkpt lat="43.78849634427889" lon="10.929471483117803"><ele>95.0</ele><time>2026-05-01T17:23:13.992Z</time></trkpt><trkpt lat="43.788573684936416" lon="10.92951898633012"><ele>95.0</ele><time>2026-05-01T17:23:17.992Z</time></trkpt><trkpt lat="43.788646055840736" lon="10.92954640842162"><ele>95.0</ele><time>2026-05-01T17:23:21.992Z</time></trkpt><trkpt lat="43.78871953794186" lon="10.929606290914684"><ele>95.0</ele><time>2026-05-01T17:23:25.992Z</time></trkpt><trkpt lat="43.78877862049159" lon="10.929679019397156"><ele>95.0</ele><time>2026-05-01T17:23:29.992Z</time></trkpt><trkpt lat="43.788874008498695" lon="10.929697124697825"><ele>94.14285714285714</ele><time>2026-05-01T17:23:34.992Z</time></trkpt><trkpt lat="43.788940696296656" lon="10.929702071086954"><ele>93.28571428571429</ele><time>2026-05-01T17:23:37.992Z</time></trkpt><trkpt lat="43.789017661962546" lon="10.929728921724637"><ele>92.42857142857142</ele><time>2026-05-01T17:23:41.992Z</time></trkpt><trkpt lat="43.789098011302" lon="10.92974366332666"><ele>91.57142857142857</ele><time>2026-05-01T17:23:45.992Z</time></trkpt><trkpt lat="43.789160413146604" lon="10.929787088893331"><ele>90.71428571428571</ele><time>2026-05-01T17:23:48.992Z</time></trkpt><trkpt lat="43.789222205223304" lon="10.92981498656428"><ele>89.85714285714285</ele><time>2026-05-01T17:23:51.992Z</time></trkpt><trkpt lat="43.789278998077286" lon="10.92985343570281"><ele>89.0</ele><time>2026-05-01T17:23:54.992Z</time></trkpt><trkpt lat="43.789357856011975" lon="10.929863935137972"><ele>88.85714285714285</ele><time>2026-05-01T17:23:58.992Z</time></trkpt><trkpt lat="43.7894267266363" lon="10.929867122841346"><ele>88.71428571428571</ele><time>2026-05-01T17:24:02.992Z</time></trkpt><trkpt lat="43.78948619066867" lon="10.92991437620724"><ele>88.57142857142857</ele><time>2026-05-01T17:24:11.992Z</time></trkpt><trkpt lat="43.78955878851016" lon="10.929935570407189"><ele>88.42857142857142</ele><time>2026-05-01T17:24:17.992Z</time></trkpt><trkpt lat="43.78962812525947" lon="10.9299699312111"><ele>88.28571428571428</ele><time>2026-05-01T17:24:24.991Z</time></trkpt><trkpt lat="43.789692169122254" lon="10.929978803259955"><ele>88.14285714285714</ele><time>2026-05-01T17:24:30.991Z</time></trkpt><trkpt lat="43.78972254133463" lon="10.929880901472558"><ele>88.0</ele><time>2026-05-01T17:24:36.991Z</time></trkpt><trkpt lat="43.78969361756636" lon="10.929795725892552"><ele>88.0</ele><time>2026-05-01T17:24:40.993Z</time></trkpt><trkpt lat="43.78968156133324" lon="10.929700572328278"><ele>88.0</ele><time>2026-05-01T17:24:44.993Z</time></trkpt><trkpt lat="43.78965170863339" lon="10.929613629237474"><ele>88.0</ele><time>2026-05-01T17:24:48.993Z</time></trkpt><trkpt lat="43.78963853800455" lon="10.929522580373707"><ele>88.0</ele><time>2026-05-01T17:24:52.993Z</time></trkpt><trkpt lat="43.789622343824895" lon="10.929415258564028"><ele>88.0</ele><time>2026-05-01T17:24:57.993Z</time></trkpt><trkpt lat="43.78959351142869" lon="10.929309596407268"><ele>88.0</ele><time>2026-05-01T17:25:02.993Z</time></trkpt><trkpt lat="43.78956653475146" lon="10.92922972760308"><ele>88.0</ele><time>2026-05-01T17:25:06.993Z</time></trkpt><trkpt lat="43.78953971014712" lon="10.929149385321718"><ele>88.57142857142857</ele><time>2026-05-01T17:25:10.993Z</time></trkpt><trkpt lat="43.789500107309514" lon="10.92906300575414"><ele>89.14285714285714</ele><time>2026-05-01T17:25:15.993Z</time></trkpt><trkpt lat="43.78945184461612" lon="10.929005455056371"><ele>89.71428571428572</ele><time>2026-05-01T17:25:20.993Z</time></trkpt><trkpt lat="43.789406310924456" lon="10.928939095753153"><ele>90.28571428571428</ele><time>2026-05-01T17:25:25.993Z</time></trkpt><trkpt lat="43.789355858749836" lon="10.928856984139713"><ele>90.85714285714285</ele><time>2026-05-01T17:25:30.993Z</time></trkpt><trkpt lat="43.7893067737406" lon="10.92880118740744"><ele>91.42857142857143</ele><time>2026-05-01T17:25:34.993Z</time></trkpt><trkpt lat="43.789250575280505" lon="10.9287372419456"><ele>92.0</ele><time>2026-05-01T17:25:39.992Z</time></trkpt><trkpt lat="43.78919871651857" lon="10.928683702071933"><ele>91.14285714285715</ele><time>2026-05-01T17:25:43.992Z</time></trkpt><trkpt lat="43.789143455122336" lon="10.928619342634466"><ele>90.28571428571428</ele><time>2026-05-01T17:25:48.992Z</time></trkpt><trkpt lat="43.78908927906564" lon="10.928554069481981"><ele>89.42857142857143</ele><time>2026-05-01T17:25:52.992Z</time></trkpt><trkpt lat="43.78903327806851" lon="10.928496223363442"><ele>88.57142857142858</ele><time>2026-05-01T17:25:56.992Z</time></trkpt><trkpt lat="43.78900468287819" lon="10.928398288723354"><ele>87.71428571428572</ele><time>2026-05-01T17:26:00.992Z</time></trkpt><trkpt lat="43.78896362194316" lon="10.928317170992718"><ele>86.85714285714286</ele><time>2026-05-01T17:26:04.992Z</time></trkpt><trkpt lat="43.788906663960304" lon="10.928236702735587"><ele>86.0</ele><time>2026-05-01T17:26:08.992Z</time></trkpt><trkpt lat="43.78884537220703" lon="10.928163871194169"><ele>86.00000000000001</ele><time>2026-05-01T17:26:12.992Z</time></trkpt><trkpt lat="43.78879631126772" lon="10.928108353540347"><ele>86.0</ele><time>2026-05-01T17:26:15.992Z</time></trkpt><trkpt lat="43.788735409839795" lon="10.928037315417168"><ele>86.0</ele><time>2026-05-01T17:26:19.992Z</time></trkpt><trkpt lat="43.7886791338609" lon="10.92796735810685"><ele>86.0</ele><time>2026-05-01T17:26:23.992Z</time></trkpt><trkpt lat="43.78862577207719" lon="10.927908811205267"><ele>86.0</ele><time>2026-05-01T17:26:26.992Z</time></trkpt><trkpt lat="43.78857350259106" lon="10.927822805286013"><ele>86.00000000000001</ele><time>2026-05-01T17:26:30.992Z</time></trkpt><trkpt lat="43.788523456774456" lon="10.92775625048925"><ele>86.0</ele><time>2026-05-01T17:26:34.992Z</time></trkpt><trkpt lat="43.78845793687315" lon="10.927700405593713"><ele>85.42857142857143</ele><time>2026-05-01T17:26:38.992Z</time></trkpt><trkpt lat="43.78839436840556" lon="10.927644867309928"><ele>84.85714285714286</ele><time>2026-05-01T17:26:42.992Z</time></trkpt><trkpt lat="43.78833859362264" lon="10.927591246351712"><ele>84.28571428571428</ele><time>2026-05-01T17:26:46.993Z</time></trkpt><trkpt lat="43.788277381964505" lon="10.927549039869342"><ele>83.71428571428572</ele><time>2026-05-01T17:26:50.992Z</time></trkpt><trkpt lat="43.78823030726695" lon="10.927490450307724"><ele>83.14285714285714</ele><time>2026-05-01T17:26:54.993Z</time></trkpt><trkpt lat="43.788181860306956" lon="10.927424234734234"><ele>82.57142857142857</ele><time>2026-05-01T17:26:58.993Z</time></trkpt><trkpt lat="43.78812288915171" lon="10.92735496842421"><ele>82.0</ele><time>2026-05-01T17:27:02.993Z</time></trkpt><trkpt lat="43.7880633628288" lon="10.927294296616036"><ele>83.33333333333333</ele><time>2026-05-01T17:27:06.993Z</time></trkpt><trkpt lat="43.788010760691144" lon="10.927226085617813"><ele>84.66666666666666</ele><time>2026-05-01T17:27:10.993Z</time></trkpt><trkpt lat="43.78794682091575" lon="10.927164515902039"><ele>86.0</ele><time>2026-05-01T17:27:14.993Z</time></trkpt><trkpt lat="43.787877266261745" lon="10.927134508896438"><ele>87.33333333333333</ele><time>2026-05-01T17:27:18.993Z</time></trkpt><trkpt lat="43.787808261360325" lon="10.927122823080255"><ele>88.66666666666667</ele><time>2026-05-01T17:27:22.993Z</time></trkpt><trkpt lat="43.78776185746126" lon="10.92720751912894"><ele>90.0</ele><time>2026-05-01T17:27:26.993Z</time></trkpt><trkpt lat="43.78768643360638" lon="10.927267421978444"><ele>89.85714285714285</ele><time>2026-05-01T17:27:31.993Z</time></trkpt><trkpt lat="43.78763996325049" lon="10.927333724558228"><ele>89.71428571428572</ele><time>2026-05-01T17:27:35.993Z</time></trkpt><trkpt lat="43.78760389626739" lon="10.927425062209343"><ele>89.57142857142857</ele><time>2026-05-01T17:27:39.992Z</time></trkpt><trkpt lat="43.787532596995305" lon="10.927469158342834"><ele>89.42857142857142</ele><time>2026-05-01T17:27:43.992Z</time></trkpt><trkpt lat="43.787467675765996" lon="10.927454084826376"><ele>89.28571428571428</ele><time>2026-05-01T17:27:46.992Z</time></trkpt><trkpt lat="43.7874248072735" lon="10.927380540711493"><ele>89.14285714285714</ele><time>2026-05-01T17:27:49.992Z</time></trkpt><trkpt lat="43.7873709435353" lon="10.927287077363589"><ele>89.0</ele><time>2026-05-01T17:27:53.992Z</time></trkpt><trkpt lat="43.78740765717401" lon="10.927181827739709"><ele>88.99999999999999</ele><time>2026-05-01T17:27:56.992Z</time></trkpt><trkpt lat="43.78746706919094" lon="10.927112280859427"><ele>89.0</ele><time>2026-05-01T17:27:59.992Z</time></trkpt><trkpt lat="43.787506298286374" lon="10.927043267465645"><ele>89.0</ele><time>2026-05-01T17:28:02.992Z</time></trkpt><trkpt lat="43.7875504225428" lon="10.92695370546107"><ele>89.0</ele><time>2026-05-01T17:28:06.992Z</time></trkpt><trkpt lat="43.78757981165277" lon="10.926856579511389"><ele>89.0</ele><time>2026-05-01T17:28:10.992Z</time></trkpt><trkpt lat="43.78750893892295" lon="10.926805102539246"><ele>88.99999999999999</ele><time>2026-05-01T17:28:13.992Z</time></trkpt><trkpt lat="43.78745339540298" lon="10.926758333876872"><ele>89.0</ele><time>2026-05-01T17:28:16.992Z</time></trkpt><trkpt lat="43.78740587555226" lon="10.926698083034378"><ele>88.71428571428571</ele><time>2026-05-01T17:28:19.992Z</time></trkpt><trkpt lat="43.7873446184795" lon="10.92666221696415"><ele>88.42857142857143</ele><time>2026-05-01T17:28:22.992Z</time></trkpt><trkpt lat="43.787291294259006" lon="10.926613725010418"><ele>88.14285714285714</ele><time>2026-05-01T17:28:25.992Z</time></trkpt><trkpt lat="43.78735657666942" lon="10.926592774261483"><ele>87.85714285714286</ele><time>2026-05-01T17:28:33.992Z</time></trkpt><trkpt lat="43.78742113649218" lon="10.926527576644407"><ele>87.57142857142857</ele><time>2026-05-01T17:28:37.992Z</time></trkpt><trkpt lat="43.78747704298788" lon="10.926457788969351"><ele>87.28571428571428</ele><time>2026-05-01T17:28:41.992Z</time></trkpt><trkpt lat="43.787529151442264" lon="10.926399887507179"><ele>87.0</ele><time>2026-05-01T17:28:45.991Z</time></trkpt><trkpt lat="43.787490171599906" lon="10.926284328620442"><ele>87.0</ele><time>2026-05-01T17:28:46.991Z</time></trkpt><trkpt lat="43.78747288808874" lon="10.926197191947246"><ele>87.0</ele><time>2026-05-01T17:28:52.992Z</time></trkpt><trkpt lat="43.78741823600364" lon="10.926126065466255"><ele>87.0</ele><time>2026-05-01T17:28:57.992Z</time></trkpt><trkpt lat="43.78737705830927" lon="10.926051164427315"><ele>87.0</ele><time>2026-05-01T17:29:04.993Z</time></trkpt><trkpt lat="43.78744564374551" lon="10.926051059428126"><ele>87.0</ele><time>2026-05-01T17:29:16.992Z</time></trkpt><trkpt lat="43.78751790428536" lon="10.926053553658981"><ele>87.0</ele><time>2026-05-01T17:29:21.992Z</time></trkpt><trkpt lat="43.7875874612534" lon="10.926054482111084"><ele>87.0</ele><time>2026-05-01T17:29:24.992Z</time></trkpt><trkpt lat="43.78765295871218" lon="10.926077286559696"><ele>85.66666666666667</ele><time>2026-05-01T17:29:27.992Z</time></trkpt><trkpt lat="43.787724293046836" lon="10.926083592186428"><ele>84.33333333333333</ele><time>2026-05-01T17:29:30.992Z</time></trkpt><trkpt lat="43.787797870102004" lon="10.926061736239987"><ele>83.0</ele><time>2026-05-01T17:29:33.992Z</time></trkpt><trkpt lat="43.78786303375036" lon="10.925989623524654"><ele>81.66666666666666</ele><time>2026-05-01T17:29:36.992Z</time></trkpt><trkpt lat="43.78791534291539" lon="10.925900486518298"><ele>80.33333333333333</ele><time>2026-05-01T17:29:39.992Z</time></trkpt><trkpt lat="43.78792230996409" lon="10.925794039014205"><ele>79.0</ele><time>2026-05-01T17:29:42.992Z</time></trkpt><trkpt lat="43.78791571155675" lon="10.925703929927803"><ele>78.57142857142858</ele><time>2026-05-01T17:29:45.992Z</time></trkpt><trkpt lat="43.787888952890384" lon="10.92560908197937"><ele>78.14285714285714</ele><time>2026-05-01T17:29:48.992Z</time></trkpt><trkpt lat="43.78783363398179" lon="10.925535431296444"><ele>77.71428571428572</ele><time>2026-05-01T17:29:51.992Z</time></trkpt><trkpt lat="43.78776968921584" lon="10.925468652345069"><ele>77.28571428571429</ele><time>2026-05-01T17:29:55.992Z</time></trkpt><trkpt lat="43.787726645289595" lon="10.925378715039125"><ele>76.85714285714286</ele><time>2026-05-01T17:29:58.992Z</time></trkpt><trkpt lat="43.78770277574649" lon="10.925292370002369"><ele>76.42857142857143</ele><time>2026-05-01T17:30:01.992Z</time></trkpt><trkpt lat="43.787693573400475" lon="10.92520599885116"><ele>76.0</ele><time>2026-05-01T17:30:04.992Z</time></trkpt><trkpt lat="43.78769123044664" lon="10.92510987265329"><ele>77.28571428571428</ele><time>2026-05-01T17:30:07.992Z</time></trkpt><trkpt lat="43.787717703683064" lon="10.925022986735902"><ele>78.57142857142858</ele><time>2026-05-01T17:30:10.992Z</time></trkpt><trkpt lat="43.78771137239" lon="10.924928603803671"><ele>79.85714285714286</ele><time>2026-05-01T17:30:13.992Z</time></trkpt><trkpt lat="43.787709375575375" lon="10.924839472196012"><ele>81.14285714285714</ele><time>2026-05-01T17:30:16.992Z</time></trkpt><trkpt lat="43.787684104286775" lon="10.92475049823839"><ele>82.42857142857142</ele><time>2026-05-01T17:30:19.991Z</time></trkpt><trkpt lat="43.78764810634158" lon="10.924664128413424"><ele>83.71428571428572</ele><time>2026-05-01T17:30:22.991Z</time></trkpt><trkpt lat="43.7876113765995" lon="10.924576284719908"><ele>85.0</ele><time>2026-05-01T17:30:25.991Z</time></trkpt><trkpt lat="43.78758509793957" lon="10.924490627306746"><ele>83.0</ele><time>2026-05-01T17:30:28.991Z</time></trkpt><trkpt lat="43.78754989202255" lon="10.924408212215242"><ele>81.0</ele><time>2026-05-01T17:30:31.991Z</time></trkpt><trkpt lat="43.78750682551866" lon="10.924302748972156"><ele>79.0</ele><time>2026-05-01T17:30:35.991Z</time></trkpt><trkpt lat="43.78747284596795" lon="10.924220466510656"><ele>77.0</ele><time>2026-05-01T17:30:38.991Z</time></trkpt><trkpt lat="43.78743237966418" lon="10.92414396482734"><ele>75.0</ele><time>2026-05-01T17:30:41.991Z</time></trkpt><trkpt lat="43.787392648203934" lon="10.924051232002771"><ele>73.0</ele><time>2026-05-01T17:30:45.991Z</time></trkpt><trkpt lat="43.78735928066712" lon="10.923956450355071"><ele>71.0</ele><time>2026-05-01T17:30:49.991Z</time></trkpt><trkpt lat="43.78733203523594" lon="10.923857621963876"><ele>71.0</ele><time>2026-05-01T17:30:53.991Z</time></trkpt><trkpt lat="43.787313587766434" lon="10.923754401829196"><ele>71.0</ele><time>2026-05-01T17:30:57.993Z</time></trkpt><trkpt lat="43.787302413621184" lon="10.92363859765309"><ele>71.0</ele><time>2026-05-01T17:31:01.992Z</time></trkpt><trkpt lat="43.78729732812848" lon="10.923527532336847"><ele>71.0</ele><time>2026-05-01T17:31:05.992Z</time></trkpt><trkpt lat="43.78729426514076" lon="10.923423819932465"><ele>71.0</ele><time>2026-05-01T17:31:09.992Z</time></trkpt><trkpt lat="43.78728474672113" lon="10.923317308459978"><ele>71.0</ele><time>2026-05-01T17:31:13.992Z</time></trkpt><trkpt lat="43.78726373940871" lon="10.923234823858717"><ele>71.28571428571428</ele><time>2026-05-01T17:31:16.992Z</time></trkpt><trkpt lat="43.78725182966554" lon="10.923122344558504"><ele>71.57142857142857</ele><time>2026-05-01T17:31:20.992Z</time></trkpt><trkpt lat="43.78721633655289" lon="10.923012970410625"><ele>71.85714285714286</ele><time>2026-05-01T17:31:24.992Z</time></trkpt><trkpt lat="43.78721330513357" lon="10.922924236765846"><ele>72.14285714285714</ele><time>2026-05-01T17:31:27.992Z</time></trkpt><trkpt lat="43.787211794703104" lon="10.92283484122765"><ele>72.42857142857143</ele><time>2026-05-01T17:31:30.992Z</time></trkpt><trkpt lat="43.78722583924984" lon="10.922743428026234"><ele>72.71428571428571</ele><time>2026-05-01T17:31:33.992Z</time></trkpt><trkpt lat="43.78722540197721" lon="10.922650841588517"><ele>73.0</ele><time>2026-05-01T17:31:36.992Z</time></trkpt><trkpt lat="43.78722077686113" lon="10.922536510107147"><ele>73.16666666666666</ele><time>2026-05-01T17:31:40.992Z</time></trkpt><trkpt lat="43.78723352873313" lon="10.922422309649471"><ele>73.33333333333333</ele><time>2026-05-01T17:31:44.992Z</time></trkpt><trkpt lat="43.78725097380871" lon="10.922322850300318"><ele>73.5</ele><time>2026-05-01T17:31:47.992Z</time></trkpt><trkpt lat="43.78727589834329" lon="10.92220822828246"><ele>73.66666666666667</ele><time>2026-05-01T17:31:51.991Z</time></trkpt><trkpt lat="43.78730453189101" lon="10.92211946598799"><ele>73.83333333333334</ele><time>2026-05-01T17:31:54.991Z</time></trkpt><trkpt lat="43.78735355775469" lon="10.92203097393009"><ele>74.0</ele><time>2026-05-01T17:31:58.991Z</time></trkpt><trkpt lat="43.7874163953846" lon="10.92195694977742"><ele>74.0</ele><time>2026-05-01T17:32:02.991Z</time></trkpt><trkpt lat="43.787473419670164" lon="10.921882631925097"><ele>74.0</ele><time>2026-05-01T17:32:06.991Z</time></trkpt><trkpt lat="43.78749209479175" lon="10.921799267040678"><ele>74.0</ele><time>2026-05-01T17:32:09.991Z</time></trkpt><trkpt lat="43.787467247932845" lon="10.92170280185268"><ele>74.0</ele><time>2026-05-01T17:32:12.991Z</time></trkpt><trkpt lat="43.78744327444838" lon="10.92161380911624"><ele>74.0</ele><time>2026-05-01T17:32:15.991Z</time></trkpt><trkpt lat="43.787412063449636" lon="10.92153648040239"><ele>74.0</ele><time>2026-05-01T17:32:18.991Z</time></trkpt><trkpt lat="43.78737593232123" lon="10.921463470603815"><ele>74.0</ele><time>2026-05-01T17:32:21.991Z</time></trkpt><trkpt lat="43.787316835225845" lon="10.921431017575934"><ele>74.0</ele><time>2026-05-01T17:32:24.991Z</time></trkpt><trkpt lat="43.787255620819245" lon="10.921476754599686"><ele>74.0</ele><time>2026-05-01T17:32:27.991Z</time></trkpt><trkpt lat="43.7872052938872" lon="10.921543250987527"><ele>74.0</ele><time>2026-05-01T17:32:30.991Z</time></trkpt><trkpt lat="43.78714871177492" lon="10.921586917321987"><ele>74.0</ele><time>2026-05-01T17:32:33.991Z</time></trkpt><trkpt lat="43.78710611584424" lon="10.921654428125981"><ele>74.0</ele><time>2026-05-01T17:32:36.991Z</time></trkpt><trkpt lat="43.787043961676744" lon="10.921702838655332"><ele>74.0</ele><time>2026-05-01T17:32:39.991Z</time></trkpt><trkpt lat="43.78699340561149" lon="10.92175486597979"><ele>74.0</ele><time>2026-05-01T17:32:42.991Z</time></trkpt><trkpt lat="43.78693818736836" lon="10.921798844314411"><ele>74.0</ele><time>2026-05-01T17:32:45.991Z</time></trkpt><trkpt lat="43.78686741965103" lon="10.921857673528816"><ele>74.0</ele><time>2026-05-01T17:32:49.991Z</time></trkpt><trkpt lat="43.78679866422362" lon="10.921906242022418"><ele>74.0</ele><time>2026-05-01T17:32:52.991Z</time></trkpt><trkpt lat="43.78674170049012" lon="10.921964737690944"><ele>74.0</ele><time>2026-05-01T17:32:55.99Z</time></trkpt><trkpt lat="43.78667956172829" lon="10.922010532175479"><ele>74.0</ele><time>2026-05-01T17:32:58.99Z</time></trkpt><trkpt lat="43.78662354938353" lon="10.922067096506352"><ele>74.0</ele><time>2026-05-01T17:33:01.99Z</time></trkpt><trkpt lat="43.78656109390603" lon="10.922103827608328"><ele>74.0</ele><time>2026-05-01T17:33:04.992Z</time></trkpt><trkpt lat="43.786496437620094" lon="10.922152754246621"><ele>72.57142857142857</ele><time>2026-05-01T17:33:07.992Z</time></trkpt><trkpt lat="43.78643122904668" lon="10.922130431420658"><ele>71.14285714285714</ele><time>2026-05-01T17:33:11.991Z</time></trkpt><trkpt lat="43.78637725336543" lon="10.922056165206929"><ele>69.71428571428571</ele><time>2026-05-01T17:33:16.992Z</time></trkpt><trkpt lat="43.7863306655607" lon="10.921987295588648"><ele>68.28571428571428</ele><time>2026-05-01T17:33:19.992Z</time></trkpt><trkpt lat="43.78629022635986" lon="10.92192015023134"><ele>66.85714285714285</ele><time>2026-05-01T17:33:22.992Z</time></trkpt><trkpt lat="43.78623982115445" lon="10.921841934244037"><ele>65.42857142857143</ele><time>2026-05-01T17:33:26.992Z</time></trkpt><trkpt lat="43.786173642354896" lon="10.92187190004871"><ele>64.0</ele><time>2026-05-01T17:33:29.992Z</time></trkpt><trkpt lat="43.78613385086113" lon="10.921955423170418"><ele>64.0</ele><time>2026-05-01T17:33:32.992Z</time></trkpt><trkpt lat="43.7860680928256" lon="10.92198319388664"><ele>63.99999999999999</ele><time>2026-05-01T17:33:35.992Z</time></trkpt><trkpt lat="43.78599806905344" lon="10.922044286903876"><ele>64.0</ele><time>2026-05-01T17:33:39.992Z</time></trkpt><trkpt lat="43.785934936989" lon="10.922079401350109"><ele>64.0</ele><time>2026-05-01T17:33:42.992Z</time></trkpt><trkpt lat="43.78587234722294" lon="10.922107574654131"><ele>63.99999999999999</ele><time>2026-05-01T17:33:45.992Z</time></trkpt><trkpt lat="43.78579426315417" lon="10.922153341906196"><ele>64.0</ele><time>2026-05-01T17:33:49.992Z</time></trkpt><trkpt lat="43.78572953956964" lon="10.922173635611761"><ele>64.0</ele><time>2026-05-01T17:33:52.992Z</time></trkpt><trkpt lat="43.78566731777245" lon="10.922204257820145"><ele>62.71428571428571</ele><time>2026-05-01T17:33:55.992Z</time></trkpt><trkpt lat="43.785602059221745" lon="10.92221799449985"><ele>61.42857142857142</ele><time>2026-05-01T17:33:58.992Z</time></trkpt><trkpt lat="43.78553097016605" lon="10.92224247340856"><ele>60.14285714285714</ele><time>2026-05-01T17:34:01.992Z</time></trkpt><trkpt lat="43.78546200963513" lon="10.922286753352502"><ele>58.857142857142854</ele><time>2026-05-01T17:34:04.991Z</time></trkpt><trkpt lat="43.78540324479409" lon="10.922343969665098"><ele>57.57142857142857</ele><time>2026-05-01T17:34:07.991Z</time></trkpt><trkpt lat="43.78533323120663" lon="10.92237480156574"><ele>56.28571428571428</ele><time>2026-05-01T17:34:10.991Z</time></trkpt><trkpt lat="43.785265391350855" lon="10.92233872552264"><ele>55.0</ele><time>2026-05-01T17:34:13.991Z</time></trkpt><trkpt lat="43.78521228565026" lon="10.922272414443603"><ele>54.49999999999999</ele><time>2026-05-01T17:34:16.991Z</time></trkpt><trkpt lat="43.78515653114987" lon="10.922186701242023"><ele>54.0</ele><time>2026-05-01T17:34:20.991Z</time></trkpt><trkpt lat="43.785095689943645" lon="10.92210684690271"><ele>53.5</ele><time>2026-05-01T17:34:24.991Z</time></trkpt><trkpt lat="43.785041456149465" lon="10.922016397543599"><ele>53.0</ele><time>2026-05-01T17:34:28.991Z</time></trkpt><trkpt lat="43.78499045416401" lon="10.921926898672385"><ele>52.49999999999999</ele><time>2026-05-01T17:34:32.991Z</time></trkpt><trkpt lat="43.78495072790698" lon="10.921854224155377"><ele>52.0</ele><time>2026-05-01T17:34:35.991Z</time></trkpt><trkpt lat="43.78490142399594" lon="10.921776851088937"><ele>52.666666666666664</ele><time>2026-05-01T17:34:38.991Z</time></trkpt><trkpt lat="43.784855656581904" lon="10.921701949253023"><ele>53.33333333333333</ele><time>2026-05-01T17:34:41.991Z</time></trkpt><trkpt lat="43.78478694110223" lon="10.921628112688593"><ele>54.0</ele><time>2026-05-01T17:34:45.991Z</time></trkpt><trkpt lat="43.78472497430849" lon="10.921598372042201"><ele>54.66666666666667</ele><time>2026-05-01T17:34:48.991Z</time></trkpt><trkpt lat="43.78465040930233" lon="10.921624128333885"><ele>55.333333333333336</ele><time>2026-05-01T17:34:51.991Z</time></trkpt><trkpt lat="43.784573383376994" lon="10.921620861227028"><ele>56.0</ele><time>2026-05-01T17:34:54.991Z</time></trkpt><trkpt lat="43.78451143054435" lon="10.921562735585312"><ele>56.0</ele><time>2026-05-01T17:34:57.991Z</time></trkpt><trkpt lat="43.78445751414553" lon="10.921509853576268"><ele>56.0</ele><time>2026-05-01T17:35:00.991Z</time></trkpt><trkpt lat="43.78439474689075" lon="10.921454684626289"><ele>56.0</ele><time>2026-05-01T17:35:03.991Z</time></trkpt><trkpt lat="43.78434377849418" lon="10.921393220935375"><ele>56.0</ele><time>2026-05-01T17:35:06.991Z</time></trkpt><trkpt lat="43.78429669504812" lon="10.92132810767103"><ele>56.0</ele><time>2026-05-01T17:35:09.991Z</time></trkpt><trkpt lat="43.784267582869326" lon="10.921232051369895"><ele>56.0</ele><time>2026-05-01T17:35:12.992Z</time></trkpt><trkpt lat="43.7842505802899" lon="10.921133775821872"><ele>56.0</ele><time>2026-05-01T17:35:15.992Z</time></trkpt><trkpt lat="43.78422292937731" lon="10.921043001417493"><ele>55.142857142857146</ele><time>2026-05-01T17:35:18.992Z</time></trkpt><trkpt lat="43.78419921938007" lon="10.920955994512001"><ele>54.285714285714285</ele><time>2026-05-01T17:35:21.991Z</time></trkpt><trkpt lat="43.784180408172006" lon="10.920863967801374"><ele>53.42857142857143</ele><time>2026-05-01T17:35:24.991Z</time></trkpt><trkpt lat="43.784156141657654" lon="10.920764110843406"><ele>52.57142857142857</ele><time>2026-05-01T17:35:27.991Z</time></trkpt><trkpt lat="43.78413531624083" lon="10.9206631161783"><ele>51.714285714285715</ele><time>2026-05-01T17:35:30.991Z</time></trkpt><trkpt lat="43.784113128732116" lon="10.920572109316424"><ele>50.85714285714286</ele><time>2026-05-01T17:35:33.991Z</time></trkpt><trkpt lat="43.78408103989992" lon="10.920473592558565"><ele>50.0</ele><time>2026-05-01T17:35:37.991Z</time></trkpt><trkpt lat="43.784045000635984" lon="10.920401175121118"><ele>49.714285714285715</ele><time>2026-05-01T17:35:41.991Z</time></trkpt><trkpt lat="43.78397708427245" lon="10.920369488936503"><ele>49.42857142857143</ele><time>2026-05-01T17:35:45.991Z</time></trkpt><trkpt lat="43.78390545372352" lon="10.920405096819273"><ele>49.14285714285714</ele><time>2026-05-01T17:35:54.991Z</time></trkpt><trkpt lat="43.783865716184" lon="10.920484414358755"><ele>48.85714285714286</ele><time>2026-05-01T17:36:00.991Z</time></trkpt><trkpt lat="43.78381231546233" lon="10.920546384749931"><ele>48.57142857142857</ele><time>2026-05-01T17:36:05.991Z</time></trkpt><trkpt lat="43.78376284355961" lon="10.920604427060193"><ele>48.285714285714285</ele><time>2026-05-01T17:36:11.991Z</time></trkpt><trkpt lat="43.783706684965345" lon="10.920660021643672"><ele>48.0</ele><time>2026-05-01T17:36:17.991Z</time></trkpt><trkpt lat="43.783653164308156" lon="10.920726721023737"><ele>47.99999999999999</ele><time>2026-05-01T17:36:22.991Z</time></trkpt><trkpt lat="43.78359086442256" lon="10.920776911264385"><ele>48.0</ele><time>2026-05-01T17:36:28.99Z</time></trkpt><trkpt lat="43.78353737572089" lon="10.920823467314928"><ele>48.0</ele><time>2026-05-01T17:36:33.99Z</time></trkpt><trkpt lat="43.78348266299489" lon="10.920877626786211"><ele>48.0</ele><time>2026-05-01T17:36:39.99Z</time></trkpt><trkpt lat="43.78343124855531" lon="10.92092831654617"><ele>48.0</ele><time>2026-05-01T17:36:45.99Z</time></trkpt><trkpt lat="43.78337294700835" lon="10.920983551085259"><ele>47.99999999999999</ele><time>2026-05-01T17:36:52.99Z</time></trkpt><trkpt lat="43.78331529369905" lon="10.92103866013535"><ele>48.0</ele><time>2026-05-01T17:36:59.99Z</time></trkpt><trkpt lat="43.78327359165431" lon="10.921108122614863"><ele>49.42857142857142</ele><time>2026-05-01T17:37:06.99Z</time></trkpt><trkpt lat="43.783209599130664" lon="10.92116150136747"><ele>50.85714285714286</ele><time>2026-05-01T17:37:12.99Z</time></trkpt><trkpt lat="43.78315193538555" lon="10.921206098530046"><ele>52.28571428571429</ele><time>2026-05-01T17:37:18.991Z</time></trkpt><trkpt lat="43.78309823182344" lon="10.921258004796725"><ele>53.714285714285715</ele><time>2026-05-01T17:37:24.991Z</time></trkpt><trkpt lat="43.78303788721258" lon="10.921296859434268"><ele>55.142857142857146</ele><time>2026-05-01T17:37:30.991Z</time></trkpt><trkpt lat="43.78297756467862" lon="10.921354176176044"><ele>56.57142857142858</ele><time>2026-05-01T17:37:37.991Z</time></trkpt><trkpt lat="43.78291186443674" lon="10.921387222983274"><ele>58.00000000000001</ele><time>2026-05-01T17:37:43.991Z</time></trkpt><trkpt lat="43.782853390673466" lon="10.921435787244759"><ele>58.00000000000001</ele><time>2026-05-01T17:37:50.991Z</time></trkpt><trkpt lat="43.78279310240932" lon="10.921481331618642"><ele>58.0</ele><time>2026-05-01T17:37:56.991Z</time></trkpt><trkpt lat="43.7827313991561" lon="10.921523509330965"><ele>58.00000000000001</ele><time>2026-05-01T17:38:02.991Z</time></trkpt><trkpt lat="43.78267918371451" lon="10.921574570419356"><ele>58.00000000000001</ele><time>2026-05-01T17:38:08.991Z</time></trkpt><trkpt lat="43.78263860837871" lon="10.921643572969916"><ele>58.0</ele><time>2026-05-01T17:38:15.991Z</time></trkpt><trkpt lat="43.78258466433787" lon="10.921697730593808"><ele>58.00000000000001</ele><time>2026-05-01T17:38:22.991Z</time></trkpt><trkpt lat="43.7825259464281" lon="10.92173007653715"><ele>58.00000000000001</ele><time>2026-05-01T17:38:28.991Z</time></trkpt><trkpt lat="43.78247882248468" lon="10.921799753386246"><ele>66.0</ele><time>2026-05-01T17:38:35.99Z</time></trkpt><trkpt lat="43.78251148895734" lon="10.92188941449108"><ele>66.0</ele><time>2026-05-01T17:38:42.99Z</time></trkpt><trkpt lat="43.78256507641615" lon="10.921940341150743"><ele>66.0</ele><time>2026-05-01T17:38:49.99Z</time></trkpt><trkpt lat="43.78261978327184" lon="10.922000959871848"><ele>66.0</ele><time>2026-05-01T17:38:56.99Z</time></trkpt><trkpt lat="43.78266542825152" lon="10.922062507128686"><ele>66.0</ele><time>2026-05-01T17:39:04.99Z</time></trkpt><trkpt lat="43.78271840924248" lon="10.922120174024132"><ele>62.0</ele><time>2026-05-01T17:39:14.99Z</time></trkpt></trkseg></trk></gpx>